AFR845 FMEE-LFPG
Flight info
| Callsign | AFR845 |
|---|---|
| Flight time | 11h 17m |
| Altitude | 32000 |
| Route | FMEE/12 UVEN2J UVENA DCT DENLI UN304 UVDOX DCT MOGDU DCT DWA DCT ULONI DCT JDW DCT GINDI DCT METRU DCT OLGAT DCT CERVI DCT TINIL TINI9E LFPG/OKI3Y I26L |
| Aircraft | B77W/H-V/N |
Departure
| Time | 2026-05-03 21:17 |
|---|---|
| Airport | Roland Garros Airport (FMEE) |
Arrival
| Time | 2026-05-04 08:35 |
|---|---|
| Airport | Charles de Gaulle International Airport (LFPG) |
| Time | Latitude | Longitude | Altitude | Speed | Heading |
|---|---|---|---|---|---|
| 2026-05-03 21:04 | -20.89072 | 55.51235 | 79 ft | 0 kts | 207° |
| 2026-05-03 21:08 | -20.89063 | 55.51240 | 85 ft | 3 kts | 207° |
| 2026-05-03 21:08 | -20.89045 | 55.51250 | 85 ft | 3 kts | 209° |
| 2026-05-03 21:09 | -20.89029 | 55.51261 | 85 ft | 2 kts | 216° |
| 2026-05-03 21:09 | -20.89019 | 55.51269 | 85 ft | 1 kts | 234° |
| 2026-05-03 21:09 | -20.89015 | 55.51277 | 85 ft | 1 kts | 260° |
| 2026-05-03 21:09 | -20.89014 | 55.51286 | 85 ft | 1 kts | 283° |
| 2026-05-03 21:10 | -20.89016 | 55.51295 | 88 ft | 1 kts | 292° |
| 2026-05-03 21:10 | -20.89019 | 55.51304 | 90 ft | 1 kts | 296° |
| 2026-05-03 21:10 | -20.89023 | 55.51312 | 96 ft | 1 kts | 297° |
| 2026-05-03 21:10 | -20.89025 | 55.51314 | 102 ft | 0 kts | 298° |
| 2026-05-03 21:12 | -20.89015 | 55.51294 | 88 ft | 9 kts | 298° |
| 2026-05-03 21:13 | -20.88983 | 55.51228 | 74 ft | 10 kts | 300° |
| 2026-05-03 21:13 | -20.88929 | 55.51184 | 84 ft | 10 kts | 340° |
| 2026-05-03 21:13 | -20.88858 | 55.51158 | 68 ft | 14 kts | 341° |
| 2026-05-03 21:13 | -20.88748 | 55.51111 | 59 ft | 13 kts | 325° |
| 2026-05-03 21:14 | -20.88712 | 55.51025 | 65 ft | 14 kts | 283° |
| 2026-05-03 21:14 | -20.88687 | 55.50896 | 57 ft | 19 kts | 282° |
| 2026-05-03 21:14 | -20.88659 | 55.50760 | 57 ft | 19 kts | 282° |
| 2026-05-03 21:14 | -20.88631 | 55.50626 | 54 ft | 16 kts | 282° |
| 2026-05-03 21:15 | -20.88596 | 55.50541 | 49 ft | 9 kts | 308° |
| 2026-05-03 21:15 | -20.88588 | 55.50495 | 52 ft | 3 kts | 227° |
| 2026-05-03 21:15 | -20.88609 | 55.50513 | 53 ft | 5 kts | 106° |
| 2026-05-03 21:15 | -20.88612 | 55.50527 | 55 ft | 0 kts | 102° |
| 2026-05-03 21:16 | -20.88612 | 55.50528 | 56 ft | 3 kts | 102° |
| 2026-05-03 21:17 | -20.88669 | 55.50811 | 56 ft | 82 kts | 102° |
| 2026-05-03 21:17 | -20.88782 | 55.51357 | 57 ft | 140 kts | 102° |
| 2026-05-03 21:17 | -20.89150 | 55.53154 | 408 ft | 205 kts | 104° |
| 2026-05-03 21:17 | -20.89346 | 55.54612 | 1620 ft | 204 kts | 85° |
| 2026-05-03 21:18 | -20.88771 | 55.56032 | 2135 ft | 222 kts | 46° |
| 2026-05-03 21:18 | -20.87380 | 55.56815 | 2422 ft | 233 kts | 8° |
| 2026-05-03 21:18 | -20.85778 | 55.56783 | 3032 ft | 231 kts | 356° |
| 2026-05-03 21:18 | -20.84120 | 55.56620 | 3337 ft | 247 kts | 355° |
| 2026-05-03 21:19 | -20.82353 | 55.56428 | 3692 ft | 263 kts | 355° |
| 2026-05-03 21:19 | -20.80496 | 55.56235 | 4201 ft | 272 kts | 354° |
| 2026-05-03 21:19 | -20.78611 | 55.56024 | 4902 ft | 274 kts | 353° |
| 2026-05-03 21:19 | -20.76766 | 55.55594 | 5403 ft | 279 kts | 337° |
| 2026-05-03 21:20 | -20.74977 | 55.54758 | 5970 ft | 285 kts | 334° |
| 2026-05-03 21:20 | -20.73157 | 55.53901 | 6635 ft | 288 kts | 336° |
| 2026-05-03 21:20 | -20.71293 | 55.53066 | 7211 ft | 292 kts | 336° |
| 2026-05-03 21:20 | -20.69399 | 55.52229 | 7814 ft | 297 kts | 336° |
| 2026-05-03 21:21 | -20.67471 | 55.51391 | 8420 ft | 300 kts | 336° |
| 2026-05-03 21:21 | -20.65516 | 55.50553 | 8998 ft | 306 kts | 336° |
| 2026-05-03 21:21 | -20.63522 | 55.49690 | 9579 ft | 311 kts | 336° |
| 2026-05-03 21:21 | -20.61514 | 55.48811 | 10248 ft | 312 kts | 336° |
| 2026-05-03 21:22 | -20.59451 | 55.47916 | 10517 ft | 330 kts | 336° |
| 2026-05-03 21:22 | -20.57257 | 55.46964 | 10666 ft | 350 kts | 336° |
| 2026-05-03 21:22 | -20.54964 | 55.45965 | 10826 ft | 370 kts | 336° |
| 2026-05-03 21:22 | -20.52527 | 55.44900 | 11106 ft | 384 kts | 336° |
| 2026-05-03 21:23 | -20.50023 | 55.43806 | 11570 ft | 393 kts | 335° |
| 2026-05-03 21:23 | -20.47476 | 55.42694 | 12156 ft | 397 kts | 335° |
| 2026-05-03 21:23 | -20.44901 | 55.41571 | 12819 ft | 400 kts | 335° |
| 2026-05-03 21:23 | -20.42315 | 55.40443 | 13458 ft | 403 kts | 335° |
| 2026-05-03 21:24 | -20.39711 | 55.39308 | 14040 ft | 406 kts | 335° |
| 2026-05-03 21:24 | -20.37076 | 55.38158 | 14544 ft | 410 kts | 335° |
| 2026-05-03 21:24 | -20.34417 | 55.36999 | 15062 ft | 414 kts | 335° |
| 2026-05-03 21:24 | -20.31764 | 55.35842 | 15573 ft | 418 kts | 335° |
| 2026-05-03 21:25 | -20.29061 | 55.34665 | 16088 ft | 421 kts | 335° |
| 2026-05-03 21:25 | -20.26338 | 55.33479 | 16585 ft | 425 kts | 335° |
| 2026-05-03 21:25 | -20.23586 | 55.32281 | 17079 ft | 428 kts | 335° |
| 2026-05-03 21:25 | -20.20813 | 55.31075 | 17585 ft | 432 kts | 335° |
| 2026-05-03 21:26 | -20.18018 | 55.29859 | 18052 ft | 436 kts | 336° |
| 2026-05-03 21:26 | -20.16154 | 55.29048 | 18373 ft | 438 kts | 336° |
| 2026-05-03 21:26 | -20.13324 | 55.27818 | 18794 ft | 441 kts | 336° |
| 2026-05-03 21:26 | -20.10476 | 55.26581 | 19256 ft | 443 kts | 336° |
| 2026-05-03 21:27 | -20.06672 | 55.24929 | 19883 ft | 445 kts | 335° |
| 2026-05-03 21:27 | -20.04730 | 55.24086 | 20189 ft | 447 kts | 335° |
| 2026-05-03 21:27 | -20.01835 | 55.22830 | 20635 ft | 449 kts | 335° |
| 2026-05-03 21:27 | -19.98966 | 55.21585 | 21077 ft | 452 kts | 335° |
| 2026-05-03 21:28 | -19.96043 | 55.20317 | 21514 ft | 454 kts | 335° |
| 2026-05-03 21:28 | -19.93104 | 55.19043 | 21957 ft | 457 kts | 335° |
| 2026-05-03 21:28 | -19.90151 | 55.17763 | 22386 ft | 459 kts | 335° |
| 2026-05-03 21:28 | -19.87182 | 55.16477 | 22843 ft | 462 kts | 335° |
| 2026-05-03 21:29 | -19.84198 | 55.15185 | 23256 ft | 464 kts | 335° |
| 2026-05-03 21:29 | -19.81193 | 55.13884 | 23670 ft | 467 kts | 335° |
| 2026-05-03 21:29 | -19.78179 | 55.12580 | 24021 ft | 469 kts | 335° |
| 2026-05-03 21:29 | -19.75155 | 55.11273 | 24374 ft | 470 kts | 335° |
| 2026-05-03 21:30 | -19.72114 | 55.09958 | 24737 ft | 472 kts | 335° |
| 2026-05-03 21:30 | -19.69065 | 55.08641 | 25092 ft | 474 kts | 335° |
| 2026-05-03 21:30 | -19.66007 | 55.07320 | 25430 ft | 476 kts | 335° |
| 2026-05-03 21:30 | -19.62929 | 55.05991 | 25772 ft | 478 kts | 335° |
| 2026-05-03 21:31 | -19.59844 | 55.04660 | 26113 ft | 480 kts | 335° |
| 2026-05-03 21:31 | -19.56783 | 55.03339 | 26416 ft | 482 kts | 335° |
| 2026-05-03 21:31 | -19.53665 | 55.01995 | 26762 ft | 484 kts | 335° |
| 2026-05-03 21:31 | -19.50538 | 55.00647 | 27086 ft | 486 kts | 335° |
| 2026-05-03 21:32 | -19.47385 | 54.99288 | 27411 ft | 487 kts | 335° |
| 2026-05-03 21:32 | -19.44234 | 54.97931 | 27716 ft | 489 kts | 335° |
| 2026-05-03 21:32 | -19.41076 | 54.96572 | 28024 ft | 491 kts | 335° |
| 2026-05-03 21:32 | -19.37949 | 54.95226 | 28320 ft | 493 kts | 335° |
| 2026-05-03 21:33 | -19.34761 | 54.93855 | 28601 ft | 495 kts | 335° |
| 2026-05-03 21:33 | -19.31568 | 54.92482 | 28871 ft | 496 kts | 335° |
| 2026-05-03 21:33 | -19.28361 | 54.91104 | 29134 ft | 498 kts | 335° |
| 2026-05-03 21:33 | -19.25140 | 54.89720 | 29405 ft | 499 kts | 335° |
| 2026-05-03 21:34 | -19.21922 | 54.88339 | 29724 ft | 499 kts | 335° |
| 2026-05-03 21:34 | -19.18711 | 54.86961 | 30113 ft | 497 kts | 335° |
| 2026-05-03 21:34 | -19.15508 | 54.85587 | 30460 ft | 496 kts | 335° |
| 2026-05-03 21:34 | -19.12309 | 54.84215 | 30757 ft | 495 kts | 335° |
| 2026-05-03 21:35 | -19.09107 | 54.82842 | 31047 ft | 495 kts | 335° |
| 2026-05-03 21:35 | -19.05926 | 54.81478 | 31320 ft | 494 kts | 335° |
| 2026-05-03 21:35 | -19.02759 | 54.80121 | 31583 ft | 494 kts | 335° |
| 2026-05-03 21:35 | -18.99617 | 54.78631 | 31809 ft | 490 kts | 327° |
| 2026-05-03 21:36 | -18.96955 | 54.76480 | 31971 ft | 483 kts | 313° |
| 2026-05-03 21:36 | -18.94543 | 54.73977 | 32046 ft | 486 kts | 313° |
| 2026-05-03 21:36 | -18.89750 | 54.68974 | 32065 ft | 486 kts | 313° |
| 2026-05-03 21:37 | -18.84883 | 54.64051 | 32072 ft | 483 kts | 314° |
| 2026-05-03 21:37 | -18.79990 | 54.59190 | 32074 ft | 481 kts | 314° |
| 2026-05-03 21:38 | -18.75146 | 54.54387 | 32075 ft | 481 kts | 314° |
| 2026-05-03 21:38 | -18.70255 | 54.49533 | 32078 ft | 483 kts | 314° |
| 2026-05-03 21:39 | -18.65353 | 54.44668 | 32077 ft | 484 kts | 314° |
| 2026-05-03 21:39 | -18.60357 | 54.39867 | 32068 ft | 488 kts | 322° |
| 2026-05-03 21:40 | -18.57392 | 54.38122 | 32092 ft | 488 kts | 333° |
| 2026-05-03 21:40 | -18.54273 | 54.36675 | 32078 ft | 490 kts | 334° |
| 2026-05-03 21:40 | -18.48028 | 54.33856 | 32084 ft | 492 kts | 334° |
| 2026-05-03 21:41 | -18.41739 | 54.30950 | 32075 ft | 494 kts | 334° |
| 2026-05-03 21:41 | -18.35462 | 54.27977 | 32073 ft | 494 kts | 333° |
| 2026-05-03 21:42 | -18.29202 | 54.24989 | 32071 ft | 494 kts | 333° |
| 2026-05-03 21:42 | -18.22951 | 54.22006 | 32074 ft | 493 kts | 333° |
| 2026-05-03 21:43 | -18.16707 | 54.19033 | 32069 ft | 491 kts | 333° |
| 2026-05-03 21:43 | -18.10505 | 54.16084 | 32069 ft | 491 kts | 333° |
| 2026-05-03 21:44 | -18.04285 | 54.13130 | 32071 ft | 490 kts | 333° |
| 2026-05-03 21:44 | -17.98075 | 54.10182 | 32072 ft | 490 kts | 334° |
| 2026-05-03 21:45 | -17.91851 | 54.07231 | 32068 ft | 490 kts | 334° |
| 2026-05-03 21:45 | -17.85622 | 54.04279 | 32069 ft | 491 kts | 334° |
| 2026-05-03 21:46 | -17.79434 | 54.01349 | 32064 ft | 491 kts | 334° |
| 2026-05-03 21:46 | -17.73199 | 53.98398 | 32066 ft | 491 kts | 334° |
| 2026-05-03 21:47 | -17.66955 | 53.95446 | 32064 ft | 491 kts | 334° |
| 2026-05-03 21:47 | -17.60720 | 53.92500 | 32062 ft | 492 kts | 334° |
| 2026-05-03 21:48 | -17.54474 | 53.89551 | 32063 ft | 492 kts | 334° |
| 2026-05-03 21:48 | -17.48262 | 53.86621 | 32062 ft | 492 kts | 334° |
| 2026-05-03 21:49 | -17.42027 | 53.83682 | 32058 ft | 492 kts | 334° |
| 2026-05-03 21:49 | -17.35762 | 53.80730 | 32060 ft | 491 kts | 334° |
| 2026-05-03 21:50 | -17.29531 | 53.77798 | 32056 ft | 491 kts | 334° |
| 2026-05-03 21:50 | -17.23331 | 53.74882 | 32057 ft | 491 kts | 334° |
| 2026-05-03 21:51 | -17.17089 | 53.71948 | 32059 ft | 491 kts | 334° |
| 2026-05-03 21:51 | -17.10845 | 53.69015 | 32056 ft | 492 kts | 334° |
| 2026-05-03 21:52 | -17.04593 | 53.66081 | 32053 ft | 492 kts | 334° |
| 2026-05-03 21:52 | -16.98344 | 53.63152 | 32052 ft | 492 kts | 334° |
| 2026-05-03 21:53 | -16.92129 | 53.60239 | 32051 ft | 492 kts | 334° |
| 2026-05-03 21:53 | -16.85869 | 53.57308 | 32050 ft | 492 kts | 334° |
| 2026-05-03 21:54 | -16.79611 | 53.54379 | 32051 ft | 492 kts | 334° |
| 2026-05-03 21:54 | -16.73359 | 53.51456 | 32052 ft | 492 kts | 334° |
| 2026-05-03 21:55 | -16.67139 | 53.48550 | 32047 ft | 492 kts | 334° |
| 2026-05-03 21:55 | -16.60863 | 53.45620 | 32049 ft | 493 kts | 334° |
| 2026-05-03 21:56 | -16.54609 | 53.42702 | 32047 ft | 493 kts | 334° |
| 2026-05-03 21:56 | -16.48380 | 53.39797 | 32049 ft | 493 kts | 334° |
| 2026-05-03 21:57 | -16.42114 | 53.36879 | 32049 ft | 493 kts | 334° |
| 2026-05-03 21:57 | -16.35843 | 53.33959 | 32043 ft | 493 kts | 334° |
| 2026-05-03 21:58 | -16.29614 | 53.31062 | 32043 ft | 493 kts | 334° |
| 2026-05-03 21:58 | -16.23339 | 53.28144 | 32047 ft | 493 kts | 334° |
| 2026-05-03 21:59 | -16.17058 | 53.25224 | 32045 ft | 493 kts | 334° |
| 2026-05-03 21:59 | -16.10789 | 53.22314 | 32043 ft | 493 kts | 334° |
| 2026-05-03 22:00 | -16.04557 | 53.19423 | 32040 ft | 493 kts | 334° |
| 2026-05-03 22:00 | -15.98285 | 53.16515 | 32039 ft | 493 kts | 334° |
| 2026-05-03 22:01 | -15.92007 | 53.13607 | 32039 ft | 493 kts | 334° |
| 2026-05-03 22:01 | -15.85730 | 53.10700 | 32036 ft | 493 kts | 334° |
| 2026-05-03 22:02 | -15.79493 | 53.07815 | 32035 ft | 494 kts | 334° |
| 2026-05-03 22:02 | -15.73210 | 53.04911 | 32034 ft | 494 kts | 334° |
| 2026-05-03 22:03 | -15.66921 | 53.02004 | 32031 ft | 493 kts | 334° |
| 2026-05-03 22:03 | -15.60649 | 52.99108 | 32035 ft | 494 kts | 334° |
| 2026-05-03 22:04 | -15.54365 | 52.96209 | 32037 ft | 494 kts | 334° |
| 2026-05-03 22:04 | -15.48076 | 52.93308 | 32026 ft | 495 kts | 334° |
| 2026-05-03 22:05 | -15.41811 | 52.90422 | 32025 ft | 494 kts | 334° |
| 2026-05-03 22:05 | -15.35518 | 52.87525 | 32026 ft | 494 kts | 334° |
| 2026-05-03 22:06 | -15.29232 | 52.84632 | 32027 ft | 494 kts | 335° |
| 2026-05-03 22:06 | -15.22943 | 52.81739 | 32024 ft | 494 kts | 335° |
| 2026-05-03 22:07 | -15.16656 | 52.78850 | 32025 ft | 494 kts | 335° |
| 2026-05-03 22:07 | -15.10415 | 52.75983 | 32021 ft | 494 kts | 335° |
| 2026-05-03 22:08 | -15.04125 | 52.73095 | 32021 ft | 494 kts | 335° |
| 2026-05-03 22:08 | -14.97831 | 52.70209 | 32019 ft | 494 kts | 335° |
| 2026-05-03 22:09 | -14.91531 | 52.67320 | 32018 ft | 494 kts | 335° |
| 2026-05-03 22:10 | -14.82133 | 52.63016 | 32019 ft | 494 kts | 335° |
| 2026-05-03 22:10 | -14.75836 | 52.60135 | 32020 ft | 494 kts | 335° |
| 2026-05-03 22:11 | -14.69547 | 52.57258 | 32014 ft | 494 kts | 335° |
| 2026-05-03 22:11 | -14.63249 | 52.54378 | 32017 ft | 494 kts | 335° |
| 2026-05-03 22:12 | -14.56994 | 52.51521 | 32016 ft | 494 kts | 335° |
| 2026-05-03 22:12 | -14.50693 | 52.48645 | 32011 ft | 494 kts | 335° |
| 2026-05-03 22:13 | -14.44396 | 52.45772 | 32011 ft | 495 kts | 335° |
| 2026-05-03 22:13 | -14.39155 | 52.43382 | 32013 ft | 495 kts | 335° |
| 2026-05-03 22:14 | -14.31817 | 52.40038 | 32011 ft | 495 kts | 335° |
| 2026-05-03 22:14 | -14.26581 | 52.37654 | 32009 ft | 495 kts | 335° |
| 2026-05-03 22:15 | -14.20275 | 52.34784 | 32008 ft | 495 kts | 335° |
| 2026-05-03 22:15 | -14.13969 | 52.31916 | 32009 ft | 495 kts | 335° |
| 2026-05-03 22:16 | -14.07659 | 52.29047 | 32005 ft | 495 kts | 335° |
| 2026-05-03 22:16 | -14.01397 | 52.26201 | 32001 ft | 495 kts | 335° |
| 2026-05-03 22:17 | -13.95090 | 52.23338 | 32000 ft | 495 kts | 336° |
| 2026-05-03 22:17 | -13.88780 | 52.20474 | 32004 ft | 495 kts | 336° |
| 2026-05-03 22:18 | -13.82470 | 52.17613 | 31997 ft | 495 kts | 336° |
| 2026-05-03 22:18 | -13.76160 | 52.14753 | 31998 ft | 495 kts | 336° |
| 2026-05-03 22:19 | -13.69840 | 52.11890 | 32001 ft | 496 kts | 336° |
| 2026-05-03 22:19 | -13.63522 | 52.09030 | 31997 ft | 496 kts | 336° |
| 2026-05-03 22:20 | -13.57246 | 52.06190 | 31995 ft | 496 kts | 336° |
| 2026-05-03 22:20 | -13.50901 | 52.03321 | 31995 ft | 496 kts | 336° |
| 2026-05-03 22:21 | -13.44614 | 52.00480 | 31991 ft | 496 kts | 336° |
| 2026-05-03 22:21 | -13.38279 | 51.97619 | 31989 ft | 496 kts | 336° |
| 2026-05-03 22:22 | -13.31978 | 51.94774 | 31990 ft | 497 kts | 336° |
| 2026-05-03 22:22 | -13.25650 | 51.91920 | 31987 ft | 497 kts | 336° |
| 2026-05-03 22:23 | -13.19321 | 51.89066 | 31988 ft | 497 kts | 336° |
| 2026-05-03 22:23 | -13.12984 | 51.86211 | 31983 ft | 497 kts | 336° |
| 2026-05-03 22:24 | -13.06643 | 51.83355 | 31992 ft | 497 kts | 336° |
| 2026-05-03 22:24 | -13.00300 | 51.80500 | 31983 ft | 498 kts | 336° |
| 2026-05-03 22:25 | -12.93992 | 51.77662 | 31987 ft | 498 kts | 336° |
| 2026-05-03 22:25 | -12.87644 | 51.74808 | 31984 ft | 498 kts | 336° |
| 2026-05-03 22:26 | -12.81264 | 51.71941 | 31982 ft | 498 kts | 336° |
| 2026-05-03 22:26 | -12.74957 | 51.69108 | 31983 ft | 499 kts | 336° |
| 2026-05-03 22:27 | -12.68575 | 51.66244 | 31984 ft | 499 kts | 336° |
| 2026-05-03 22:27 | -12.62233 | 51.63398 | 31977 ft | 499 kts | 336° |
| 2026-05-03 22:28 | -12.55847 | 51.60535 | 31975 ft | 499 kts | 336° |
| 2026-05-03 22:28 | -12.49481 | 51.57682 | 31977 ft | 500 kts | 336° |
| 2026-05-03 22:29 | -12.43112 | 51.54830 | 31973 ft | 500 kts | 336° |
| 2026-05-03 22:29 | -12.36733 | 51.51974 | 31974 ft | 500 kts | 336° |
| 2026-05-03 22:30 | -12.30399 | 51.49140 | 31974 ft | 500 kts | 336° |
| 2026-05-03 22:30 | -12.24004 | 51.46280 | 31972 ft | 501 kts | 336° |
| 2026-05-03 22:31 | -12.17613 | 51.43424 | 31972 ft | 501 kts | 336° |
| 2026-05-03 22:31 | -12.11249 | 51.40581 | 31971 ft | 501 kts | 336° |
| 2026-05-03 22:32 | -12.04828 | 51.37715 | 31971 ft | 502 kts | 336° |
| 2026-05-03 22:32 | -11.98443 | 51.34865 | 31976 ft | 502 kts | 336° |
| 2026-05-03 22:33 | -11.92019 | 51.32000 | 31967 ft | 502 kts | 337° |
| 2026-05-03 22:33 | -11.85637 | 51.29155 | 31964 ft | 502 kts | 336° |
| 2026-05-03 22:34 | -11.79237 | 51.26304 | 31965 ft | 502 kts | 337° |
| 2026-05-03 22:34 | -11.72816 | 51.23444 | 31969 ft | 500 kts | 337° |
| 2026-05-03 22:35 | -11.66479 | 51.20623 | 31948 ft | 493 kts | 337° |
| 2026-05-03 22:35 | -11.60235 | 51.17846 | 31960 ft | 492 kts | 337° |
| 2026-05-03 22:36 | -11.53966 | 51.15059 | 31962 ft | 492 kts | 337° |
| 2026-05-03 22:36 | -11.47673 | 51.12262 | 31958 ft | 493 kts | 337° |
| 2026-05-03 22:37 | -11.41396 | 51.09472 | 31958 ft | 494 kts | 337° |
| 2026-05-03 22:37 | -11.35073 | 51.06666 | 31956 ft | 495 kts | 337° |
| 2026-05-03 22:38 | -11.28783 | 51.03875 | 31954 ft | 495 kts | 338° |
| 2026-05-03 22:38 | -11.22438 | 51.01060 | 31956 ft | 496 kts | 338° |
| 2026-05-03 22:39 | -11.16104 | 50.98252 | 31953 ft | 496 kts | 338° |
| 2026-05-03 22:39 | -11.09799 | 50.95458 | 31953 ft | 497 kts | 338° |
| 2026-05-03 22:40 | -11.03446 | 50.92643 | 31953 ft | 497 kts | 338° |
| 2026-05-03 22:40 | -10.97134 | 50.89849 | 31951 ft | 497 kts | 338° |
| 2026-05-03 22:41 | -10.90749 | 50.87024 | 31950 ft | 497 kts | 338° |
| 2026-05-03 22:41 | -10.84415 | 50.84222 | 31948 ft | 498 kts | 338° |
| 2026-05-03 22:42 | -10.78061 | 50.81412 | 31957 ft | 498 kts | 338° |
| 2026-05-03 22:42 | -10.71722 | 50.78612 | 31944 ft | 499 kts | 338° |
| 2026-05-03 22:43 | -10.65344 | 50.75793 | 31946 ft | 499 kts | 338° |
| 2026-05-03 22:43 | -10.58962 | 50.72976 | 31941 ft | 500 kts | 338° |
| 2026-05-03 22:44 | -10.52583 | 50.70161 | 31946 ft | 500 kts | 338° |
| 2026-05-03 22:44 | -10.46191 | 50.67341 | 31943 ft | 500 kts | 338° |
| 2026-05-03 22:45 | -10.39813 | 50.64530 | 31945 ft | 501 kts | 338° |
| 2026-05-03 22:45 | -10.33417 | 50.61710 | 31944 ft | 501 kts | 338° |
| 2026-05-03 22:46 | -10.27057 | 50.58910 | 31940 ft | 501 kts | 338° |
| 2026-05-03 22:46 | -10.20636 | 50.56082 | 31939 ft | 501 kts | 338° |
| 2026-05-03 22:47 | -10.14244 | 50.53268 | 31941 ft | 501 kts | 338° |
| 2026-05-03 22:47 | -10.07854 | 50.50455 | 31941 ft | 501 kts | 339° |
| 2026-05-03 22:48 | -10.01437 | 50.47634 | 31940 ft | 501 kts | 339° |
| 2026-05-03 22:48 | -9.95062 | 50.44831 | 31934 ft | 501 kts | 339° |
| 2026-05-03 22:49 | -9.88673 | 50.42021 | 31935 ft | 501 kts | 339° |
| 2026-05-03 22:49 | -9.82274 | 50.39207 | 31931 ft | 501 kts | 339° |
| 2026-05-03 22:50 | -9.75891 | 50.36403 | 31936 ft | 500 kts | 338° |
| 2026-05-03 22:50 | -9.69496 | 50.33593 | 31938 ft | 500 kts | 339° |
| 2026-05-03 22:51 | -9.63100 | 50.30784 | 31932 ft | 499 kts | 339° |
| 2026-05-03 22:51 | -9.56742 | 50.27993 | 31930 ft | 499 kts | 339° |
| 2026-05-03 22:52 | -9.50370 | 50.25198 | 31927 ft | 499 kts | 339° |
| 2026-05-03 22:52 | -9.44000 | 50.22405 | 31930 ft | 499 kts | 339° |
| 2026-05-03 22:53 | -9.37664 | 50.19626 | 31930 ft | 499 kts | 339° |
| 2026-05-03 22:53 | -9.31281 | 50.16829 | 31927 ft | 499 kts | 339° |
| 2026-05-03 22:54 | -9.24856 | 50.14014 | 31925 ft | 500 kts | 339° |
| 2026-05-03 22:54 | -9.18498 | 50.11231 | 31927 ft | 500 kts | 339° |
| 2026-05-03 22:55 | -9.12110 | 50.08435 | 31924 ft | 500 kts | 339° |
| 2026-05-03 22:55 | -9.05747 | 50.05650 | 31923 ft | 501 kts | 339° |
| 2026-05-03 22:56 | -8.99348 | 50.02851 | 31925 ft | 501 kts | 339° |
| 2026-05-03 22:56 | -8.92938 | 50.00049 | 31922 ft | 501 kts | 339° |
| 2026-05-03 22:57 | -8.86535 | 49.97251 | 31923 ft | 501 kts | 339° |
| 2026-05-03 22:57 | -8.80160 | 49.94465 | 31921 ft | 501 kts | 339° |
| 2026-05-03 22:58 | -8.73724 | 49.91655 | 31921 ft | 501 kts | 339° |
| 2026-05-03 22:58 | -8.67340 | 49.88868 | 31924 ft | 501 kts | 339° |
| 2026-05-03 22:59 | -8.60944 | 49.86077 | 31920 ft | 501 kts | 339° |
| 2026-05-03 22:59 | -8.54562 | 49.83292 | 31919 ft | 501 kts | 339° |
| 2026-05-03 23:00 | -8.48159 | 49.80500 | 31920 ft | 501 kts | 339° |
| 2026-05-03 23:00 | -8.41754 | 49.77709 | 31919 ft | 500 kts | 339° |
| 2026-05-03 23:01 | -8.35390 | 49.74936 | 31922 ft | 500 kts | 339° |
| 2026-05-03 23:01 | -8.28994 | 49.72149 | 31923 ft | 500 kts | 339° |
| 2026-05-03 23:02 | -8.22600 | 49.69365 | 31922 ft | 500 kts | 339° |
| 2026-05-03 23:02 | -8.16227 | 49.66591 | 31921 ft | 500 kts | 339° |
| 2026-05-03 23:03 | -8.09806 | 49.63798 | 31924 ft | 501 kts | 339° |
| 2026-05-03 23:03 | -8.03437 | 49.61026 | 31920 ft | 501 kts | 339° |
| 2026-05-03 23:04 | -7.98090 | 49.58702 | 31923 ft | 501 kts | 339° |
| 2026-05-03 23:04 | -7.91671 | 49.55912 | 31925 ft | 502 kts | 339° |
| 2026-05-03 23:05 | -7.85257 | 49.53124 | 31919 ft | 503 kts | 339° |
| 2026-05-03 23:05 | -7.78837 | 49.50335 | 31921 ft | 503 kts | 339° |
| 2026-05-03 23:06 | -7.72434 | 49.47554 | 31921 ft | 503 kts | 339° |
| 2026-05-03 23:06 | -7.66004 | 49.44763 | 31919 ft | 503 kts | 339° |
| 2026-05-03 23:07 | -7.59554 | 49.41964 | 31920 ft | 503 kts | 339° |
| 2026-05-03 23:07 | -7.53154 | 49.39187 | 31923 ft | 504 kts | 339° |
| 2026-05-03 23:08 | -7.46720 | 49.36396 | 31924 ft | 504 kts | 339° |
| 2026-05-03 23:08 | -7.40281 | 49.33605 | 31921 ft | 504 kts | 339° |
| 2026-05-03 23:09 | -7.33819 | 49.30804 | 31922 ft | 504 kts | 339° |
| 2026-05-03 23:09 | -7.27385 | 49.28016 | 31916 ft | 504 kts | 339° |
| 2026-05-03 23:10 | -7.20965 | 49.25235 | 31919 ft | 504 kts | 339° |
| 2026-05-03 23:10 | -7.14506 | 49.22438 | 31920 ft | 504 kts | 339° |
| 2026-05-03 23:11 | -7.08077 | 49.19654 | 31922 ft | 504 kts | 339° |
| 2026-05-03 23:11 | -7.01652 | 49.16872 | 31920 ft | 504 kts | 339° |
| 2026-05-03 23:12 | -6.95195 | 49.14075 | 31922 ft | 504 kts | 339° |
| 2026-05-03 23:12 | -6.88788 | 49.11292 | 31924 ft | 504 kts | 339° |
| 2026-05-03 23:13 | -6.82313 | 49.08478 | 31922 ft | 504 kts | 339° |
| 2026-05-03 23:13 | -6.75887 | 49.05686 | 31923 ft | 504 kts | 339° |
| 2026-05-03 23:14 | -6.69476 | 49.02903 | 31919 ft | 504 kts | 339° |
| 2026-05-03 23:14 | -6.63012 | 49.00098 | 31918 ft | 504 kts | 339° |
| 2026-05-03 23:15 | -6.56577 | 48.97306 | 31920 ft | 504 kts | 339° |
| 2026-05-03 23:15 | -6.50116 | 48.94503 | 31920 ft | 505 kts | 339° |
| 2026-05-03 23:16 | -6.43674 | 48.91710 | 31922 ft | 505 kts | 339° |
| 2026-05-03 23:16 | -6.37262 | 48.88930 | 31919 ft | 505 kts | 339° |
| 2026-05-03 23:17 | -6.30811 | 48.86134 | 31918 ft | 505 kts | 339° |
| 2026-05-03 23:17 | -6.24340 | 48.83331 | 31919 ft | 505 kts | 339° |
| 2026-05-03 23:18 | -6.17885 | 48.80534 | 31918 ft | 505 kts | 339° |
| 2026-05-03 23:18 | -6.11461 | 48.77753 | 31922 ft | 505 kts | 339° |
| 2026-05-03 23:19 | -6.04964 | 48.74940 | 31917 ft | 505 kts | 339° |
| 2026-05-03 23:19 | -5.98556 | 48.72166 | 31917 ft | 505 kts | 339° |
| 2026-05-03 23:20 | -5.92084 | 48.69366 | 31917 ft | 505 kts | 339° |
| 2026-05-03 23:20 | -5.85611 | 48.66565 | 31918 ft | 505 kts | 339° |
| 2026-05-03 23:21 | -5.79193 | 48.63790 | 31919 ft | 505 kts | 339° |
| 2026-05-03 23:21 | -5.72731 | 48.60996 | 31918 ft | 505 kts | 339° |
| 2026-05-03 23:22 | -5.63034 | 48.56804 | 31917 ft | 505 kts | 339° |
| 2026-05-03 23:22 | -5.56567 | 48.54010 | 31916 ft | 505 kts | 339° |
| 2026-05-03 23:23 | -5.50104 | 48.51218 | 31917 ft | 505 kts | 339° |
| 2026-05-03 23:23 | -5.43684 | 48.48445 | 31916 ft | 505 kts | 339° |
| 2026-05-03 23:24 | -5.37227 | 48.45657 | 31919 ft | 505 kts | 339° |
| 2026-05-03 23:24 | -5.30773 | 48.42871 | 31920 ft | 505 kts | 339° |
| 2026-05-03 23:25 | -5.24310 | 48.40081 | 31918 ft | 505 kts | 338° |
| 2026-05-03 23:25 | -5.17846 | 48.37292 | 31917 ft | 505 kts | 339° |
| 2026-05-03 23:26 | -5.11382 | 48.34503 | 31916 ft | 505 kts | 338° |
| 2026-05-03 23:26 | -5.04963 | 48.31734 | 31913 ft | 505 kts | 338° |
| 2026-05-03 23:27 | -4.98508 | 48.28951 | 31920 ft | 505 kts | 338° |
| 2026-05-03 23:27 | -4.92047 | 48.26165 | 31915 ft | 505 kts | 338° |
| 2026-05-03 23:28 | -4.85574 | 48.23375 | 31917 ft | 505 kts | 338° |
| 2026-05-03 23:28 | -4.79142 | 48.20603 | 31917 ft | 505 kts | 338° |
| 2026-05-03 23:29 | -4.72689 | 48.17823 | 31916 ft | 505 kts | 338° |
| 2026-05-03 23:29 | -4.66232 | 48.15041 | 31915 ft | 505 kts | 338° |
| 2026-05-03 23:30 | -4.59771 | 48.12259 | 31916 ft | 506 kts | 338° |
| 2026-05-03 23:30 | -4.53314 | 48.09478 | 31916 ft | 506 kts | 338° |
| 2026-05-03 23:31 | -4.46858 | 48.06699 | 31912 ft | 506 kts | 338° |
| 2026-05-03 23:31 | -4.40367 | 48.03905 | 31913 ft | 506 kts | 338° |
| 2026-05-03 23:32 | -4.33946 | 48.01142 | 31917 ft | 506 kts | 338° |
| 2026-05-03 23:32 | -4.27439 | 47.98342 | 31917 ft | 506 kts | 338° |
| 2026-05-03 23:33 | -4.20983 | 47.95564 | 31915 ft | 506 kts | 338° |
| 2026-05-03 23:33 | -4.14538 | 47.92793 | 31914 ft | 506 kts | 338° |
| 2026-05-03 23:34 | -4.08032 | 47.89994 | 31913 ft | 507 kts | 338° |
| 2026-05-03 23:34 | -4.01552 | 47.87209 | 31914 ft | 507 kts | 338° |
| 2026-05-03 23:35 | -3.95079 | 47.84426 | 31916 ft | 507 kts | 338° |
| 2026-05-03 23:35 | -3.88593 | 47.81638 | 31914 ft | 508 kts | 338° |
| 2026-05-03 23:36 | -3.82121 | 47.78857 | 31913 ft | 508 kts | 338° |
| 2026-05-03 23:36 | -3.75625 | 47.76066 | 31909 ft | 509 kts | 338° |
| 2026-05-03 23:37 | -3.69106 | 47.73265 | 31910 ft | 509 kts | 338° |
| 2026-05-03 23:37 | -3.62601 | 47.70471 | 31908 ft | 509 kts | 338° |
| 2026-05-03 23:38 | -3.56063 | 47.67663 | 31911 ft | 510 kts | 338° |
| 2026-05-03 23:38 | -3.49573 | 47.64876 | 31913 ft | 510 kts | 338° |
| 2026-05-03 23:39 | -3.43028 | 47.62066 | 31914 ft | 510 kts | 338° |
| 2026-05-03 23:39 | -3.36499 | 47.59263 | 31911 ft | 510 kts | 338° |
| 2026-05-03 23:40 | -3.29976 | 47.56464 | 31909 ft | 511 kts | 338° |
| 2026-05-03 23:40 | -3.23470 | 47.53672 | 31908 ft | 511 kts | 338° |
| 2026-05-03 23:41 | -3.16954 | 47.50876 | 31914 ft | 511 kts | 338° |
| 2026-05-03 23:41 | -3.10381 | 47.48056 | 31913 ft | 511 kts | 338° |
| 2026-05-03 23:42 | -3.03852 | 47.45255 | 31914 ft | 511 kts | 338° |
| 2026-05-03 23:42 | -2.97334 | 47.42459 | 31913 ft | 512 kts | 338° |
| 2026-05-03 23:43 | -2.90781 | 47.39649 | 31911 ft | 512 kts | 338° |
| 2026-05-03 23:43 | -2.84226 | 47.36838 | 31908 ft | 512 kts | 338° |
| 2026-05-03 23:44 | -2.77701 | 47.34041 | 31909 ft | 512 kts | 338° |
| 2026-05-03 23:44 | -2.71139 | 47.31228 | 31910 ft | 512 kts | 338° |
| 2026-05-03 23:45 | -2.64613 | 47.28430 | 31908 ft | 512 kts | 338° |
| 2026-05-03 23:45 | -2.58089 | 47.25634 | 31913 ft | 512 kts | 338° |
| 2026-05-03 23:46 | -2.51528 | 47.22822 | 31909 ft | 512 kts | 338° |
| 2026-05-03 23:46 | -2.44985 | 47.20018 | 31909 ft | 511 kts | 338° |
| 2026-05-03 23:47 | -2.38468 | 47.17226 | 31910 ft | 511 kts | 338° |
| 2026-05-03 23:47 | -2.31922 | 47.14422 | 31909 ft | 511 kts | 338° |
| 2026-05-03 23:48 | -2.25360 | 47.11611 | 31909 ft | 511 kts | 338° |
| 2026-05-03 23:48 | -2.18860 | 47.08826 | 31909 ft | 510 kts | 338° |
| 2026-05-03 23:49 | -2.12333 | 47.06031 | 31909 ft | 510 kts | 338° |
| 2026-05-03 23:49 | -2.05837 | 47.03249 | 31910 ft | 509 kts | 338° |
| 2026-05-03 23:50 | -2.00378 | 47.00912 | 31910 ft | 509 kts | 338° |
| 2026-05-03 23:50 | -1.92834 | 46.97681 | 31910 ft | 509 kts | 338° |
| 2026-05-03 23:51 | -1.86303 | 46.94885 | 31910 ft | 508 kts | 338° |
| 2026-05-03 23:51 | -1.79800 | 46.92102 | 31911 ft | 508 kts | 338° |
| 2026-05-03 23:52 | -1.73300 | 46.89319 | 31910 ft | 508 kts | 338° |
| 2026-05-03 23:52 | -1.66809 | 46.86540 | 31910 ft | 508 kts | 338° |
| 2026-05-03 23:53 | -1.60310 | 46.83759 | 31910 ft | 508 kts | 338° |
| 2026-05-03 23:53 | -1.53807 | 46.80976 | 31909 ft | 508 kts | 338° |
| 2026-05-03 23:54 | -1.47335 | 46.78206 | 31916 ft | 507 kts | 338° |
| 2026-05-03 23:54 | -1.40834 | 46.75424 | 31914 ft | 507 kts | 338° |
| 2026-05-03 23:55 | -1.34367 | 46.72657 | 31914 ft | 507 kts | 338° |
| 2026-05-03 23:55 | -1.27905 | 46.69892 | 31913 ft | 507 kts | 338° |
| 2026-05-03 23:56 | -1.22473 | 46.67568 | 31910 ft | 507 kts | 338° |
| 2026-05-03 23:56 | -1.15984 | 46.64792 | 31908 ft | 506 kts | 338° |
| 2026-05-03 23:57 | -1.09543 | 46.62036 | 31907 ft | 506 kts | 338° |
| 2026-05-03 23:57 | -1.03070 | 46.59267 | 31908 ft | 505 kts | 338° |
| 2026-05-03 23:58 | -0.96599 | 46.56499 | 31911 ft | 505 kts | 338° |
| 2026-05-03 23:58 | -0.90164 | 46.53747 | 31914 ft | 505 kts | 338° |
| 2026-05-03 23:59 | -0.83688 | 46.50977 | 31914 ft | 505 kts | 338° |
| 2026-05-03 23:59 | -0.77249 | 46.48223 | 31909 ft | 504 kts | 338° |
| 2026-05-04 00:00 | -0.70804 | 46.45466 | 31912 ft | 504 kts | 338° |
| 2026-05-04 00:00 | -0.64384 | 46.42720 | 31914 ft | 504 kts | 338° |
| 2026-05-04 00:01 | -0.57945 | 46.39966 | 31910 ft | 504 kts | 338° |
| 2026-05-04 00:01 | -0.51479 | 46.37201 | 31911 ft | 504 kts | 338° |
| 2026-05-04 00:02 | -0.45018 | 46.34438 | 31911 ft | 504 kts | 338° |
| 2026-05-04 00:02 | -0.38622 | 46.31702 | 31909 ft | 504 kts | 338° |
| 2026-05-04 00:03 | -0.32159 | 46.28939 | 31909 ft | 504 kts | 338° |
| 2026-05-04 00:03 | -0.25706 | 46.26179 | 31919 ft | 504 kts | 338° |
| 2026-05-04 00:04 | -0.19251 | 46.23419 | 31915 ft | 504 kts | 338° |
| 2026-05-04 00:04 | -0.12860 | 46.20686 | 31914 ft | 504 kts | 338° |
| 2026-05-04 00:05 | -0.06409 | 46.17927 | 31913 ft | 504 kts | 338° |
| 2026-05-04 00:05 | 0.00046 | 46.15167 | 31911 ft | 503 kts | 338° |
| 2026-05-04 00:06 | 0.06480 | 46.12416 | 31919 ft | 503 kts | 338° |
| 2026-05-04 00:06 | 0.12916 | 46.09663 | 31918 ft | 503 kts | 338° |
| 2026-05-04 00:07 | 0.19346 | 46.06914 | 31918 ft | 503 kts | 338° |
| 2026-05-04 00:07 | 0.25787 | 46.04159 | 31917 ft | 503 kts | 338° |
| 2026-05-04 00:08 | 0.32178 | 46.01426 | 31919 ft | 503 kts | 338° |
| 2026-05-04 00:08 | 0.38621 | 45.98671 | 31918 ft | 503 kts | 338° |
| 2026-05-04 00:09 | 0.45038 | 45.95927 | 31919 ft | 502 kts | 338° |
| 2026-05-04 00:09 | 0.51453 | 45.93183 | 31918 ft | 502 kts | 338° |
| 2026-05-04 00:10 | 0.57888 | 45.90431 | 31918 ft | 502 kts | 338° |
| 2026-05-04 00:10 | 0.64301 | 45.87689 | 31918 ft | 502 kts | 338° |
| 2026-05-04 00:11 | 0.70721 | 45.84943 | 31917 ft | 502 kts | 338° |
| 2026-05-04 00:11 | 0.77161 | 45.82188 | 31914 ft | 502 kts | 338° |
| 2026-05-04 00:12 | 0.83592 | 45.79438 | 31917 ft | 502 kts | 338° |
| 2026-05-04 00:12 | 0.89976 | 45.76707 | 31917 ft | 502 kts | 338° |
| 2026-05-04 00:13 | 0.96423 | 45.73949 | 31918 ft | 502 kts | 338° |
| 2026-05-04 00:13 | 1.02824 | 45.71211 | 31918 ft | 502 kts | 338° |
| 2026-05-04 00:14 | 1.09277 | 45.68451 | 31915 ft | 503 kts | 338° |
| 2026-05-04 00:14 | 1.15674 | 45.65714 | 31914 ft | 503 kts | 338° |
| 2026-05-04 00:15 | 1.22138 | 45.62948 | 31918 ft | 503 kts | 338° |
| 2026-05-04 00:15 | 1.28580 | 45.60192 | 31918 ft | 503 kts | 338° |
| 2026-05-04 00:16 | 1.34987 | 45.57451 | 31918 ft | 503 kts | 338° |
| 2026-05-04 00:16 | 1.41414 | 45.54701 | 31917 ft | 504 kts | 338° |
| 2026-05-04 00:17 | 1.47848 | 45.51947 | 31922 ft | 504 kts | 338° |
| 2026-05-04 00:17 | 1.54323 | 45.49176 | 31919 ft | 504 kts | 338° |
| 2026-05-04 00:18 | 1.60747 | 45.46426 | 31918 ft | 504 kts | 338° |
| 2026-05-04 00:18 | 1.67213 | 45.43659 | 31917 ft | 504 kts | 338° |
| 2026-05-04 00:19 | 1.73642 | 45.40907 | 31915 ft | 504 kts | 338° |
| 2026-05-04 00:19 | 1.80095 | 45.38144 | 31918 ft | 504 kts | 338° |
| 2026-05-04 00:20 | 1.86512 | 45.35397 | 31918 ft | 504 kts | 338° |
| 2026-05-04 00:20 | 1.92933 | 45.32647 | 31921 ft | 504 kts | 338° |
| 2026-05-04 00:21 | 1.99400 | 45.29877 | 31921 ft | 504 kts | 338° |
| 2026-05-04 00:21 | 2.05805 | 45.27084 | 31923 ft | 504 kts | 338° |
| 2026-05-04 00:22 | 2.12190 | 45.24220 | 31926 ft | 504 kts | 337° |
| 2026-05-04 00:22 | 2.18613 | 45.21333 | 31927 ft | 504 kts | 337° |
| 2026-05-04 00:23 | 2.24991 | 45.18478 | 31925 ft | 504 kts | 338° |
| 2026-05-04 00:23 | 2.31390 | 45.15620 | 31924 ft | 503 kts | 337° |
| 2026-05-04 00:24 | 2.37769 | 45.12773 | 31925 ft | 503 kts | 338° |
| 2026-05-04 00:24 | 2.44186 | 45.09907 | 31930 ft | 503 kts | 338° |
| 2026-05-04 00:25 | 2.50553 | 45.07064 | 31933 ft | 503 kts | 337° |
| 2026-05-04 00:25 | 2.56936 | 45.04212 | 31930 ft | 503 kts | 337° |
| 2026-05-04 00:26 | 2.63307 | 45.01366 | 31933 ft | 503 kts | 337° |
| 2026-05-04 00:26 | 2.69702 | 44.98509 | 31932 ft | 503 kts | 337° |
| 2026-05-04 00:27 | 2.76125 | 44.95638 | 31933 ft | 503 kts | 337° |
| 2026-05-04 00:27 | 2.82500 | 44.92789 | 31931 ft | 503 kts | 337° |
| 2026-05-04 00:28 | 2.88909 | 44.89925 | 31926 ft | 504 kts | 337° |
| 2026-05-04 00:28 | 2.95289 | 44.87072 | 31933 ft | 504 kts | 337° |
| 2026-05-04 00:29 | 3.01696 | 44.84208 | 31934 ft | 504 kts | 337° |
| 2026-05-04 00:29 | 3.08112 | 44.81339 | 31937 ft | 504 kts | 337° |
| 2026-05-04 00:30 | 3.14462 | 44.78499 | 31936 ft | 504 kts | 337° |
| 2026-05-04 00:30 | 3.20884 | 44.75627 | 31935 ft | 503 kts | 337° |
| 2026-05-04 00:31 | 3.27268 | 44.72771 | 31936 ft | 503 kts | 337° |
| 2026-05-04 00:31 | 3.33637 | 44.69922 | 31944 ft | 503 kts | 337° |
| 2026-05-04 00:32 | 3.40019 | 44.67066 | 31946 ft | 502 kts | 337° |
| 2026-05-04 00:32 | 3.46407 | 44.64207 | 31949 ft | 502 kts | 337° |
| 2026-05-04 00:33 | 3.55975 | 44.59924 | 31947 ft | 502 kts | 337° |
| 2026-05-04 00:34 | 3.62342 | 44.57074 | 31946 ft | 502 kts | 337° |
| 2026-05-04 00:34 | 3.68690 | 44.54232 | 31953 ft | 502 kts | 337° |
| 2026-05-04 00:35 | 3.75075 | 44.51372 | 31953 ft | 502 kts | 336° |
| 2026-05-04 00:35 | 3.81420 | 44.48531 | 31954 ft | 501 kts | 336° |
| 2026-05-04 00:36 | 3.87790 | 44.45677 | 31954 ft | 501 kts | 336° |
| 2026-05-04 00:36 | 3.94135 | 44.42834 | 31954 ft | 500 kts | 336° |
| 2026-05-04 00:37 | 4.00488 | 44.39987 | 31954 ft | 500 kts | 336° |
| 2026-05-04 00:37 | 4.06831 | 44.37144 | 31957 ft | 499 kts | 336° |
| 2026-05-04 00:38 | 4.13184 | 44.34297 | 31957 ft | 498 kts | 336° |
| 2026-05-04 00:38 | 4.19489 | 44.31470 | 31960 ft | 498 kts | 336° |
| 2026-05-04 00:39 | 4.25812 | 44.28635 | 31960 ft | 497 kts | 336° |
| 2026-05-04 00:39 | 4.32087 | 44.25820 | 31958 ft | 496 kts | 336° |
| 2026-05-04 00:40 | 4.38389 | 44.22993 | 31957 ft | 496 kts | 336° |
| 2026-05-04 00:40 | 4.44683 | 44.20169 | 31958 ft | 496 kts | 336° |
| 2026-05-04 00:41 | 4.50987 | 44.17340 | 31963 ft | 496 kts | 336° |
| 2026-05-04 00:41 | 4.57299 | 44.14507 | 31961 ft | 497 kts | 336° |
| 2026-05-04 00:42 | 4.63594 | 44.11681 | 31958 ft | 497 kts | 336° |
| 2026-05-04 00:42 | 4.69921 | 44.08840 | 31962 ft | 498 kts | 336° |
| 2026-05-04 00:43 | 4.76213 | 44.06014 | 31955 ft | 498 kts | 336° |
| 2026-05-04 00:43 | 4.82525 | 44.03179 | 31954 ft | 498 kts | 336° |
| 2026-05-04 00:44 | 4.88848 | 44.00338 | 31949 ft | 498 kts | 336° |
| 2026-05-04 00:44 | 4.95177 | 43.97494 | 31949 ft | 497 kts | 336° |
| 2026-05-04 00:45 | 5.01465 | 43.94667 | 31944 ft | 497 kts | 336° |
| 2026-05-04 00:45 | 5.07789 | 43.91824 | 31944 ft | 497 kts | 336° |
| 2026-05-04 00:46 | 5.14110 | 43.88981 | 31940 ft | 497 kts | 336° |
| 2026-05-04 00:46 | 5.20406 | 43.86150 | 31941 ft | 497 kts | 336° |
| 2026-05-04 00:47 | 5.26723 | 43.83308 | 31945 ft | 498 kts | 336° |
| 2026-05-04 00:47 | 5.32020 | 43.80924 | 31944 ft | 498 kts | 336° |
| 2026-05-04 00:48 | 5.38295 | 43.78100 | 31943 ft | 498 kts | 336° |
| 2026-05-04 00:48 | 5.44631 | 43.75248 | 31943 ft | 498 kts | 336° |
| 2026-05-04 00:49 | 5.50981 | 43.72389 | 31941 ft | 498 kts | 336° |
| 2026-05-04 00:49 | 5.57308 | 43.69540 | 31940 ft | 499 kts | 336° |
| 2026-05-04 00:50 | 5.63619 | 43.66697 | 31936 ft | 499 kts | 336° |
| 2026-05-04 00:50 | 5.69931 | 43.63853 | 31937 ft | 499 kts | 336° |
| 2026-05-04 00:51 | 5.76263 | 43.60998 | 31939 ft | 499 kts | 336° |
| 2026-05-04 00:51 | 5.82581 | 43.58150 | 31934 ft | 498 kts | 336° |
| 2026-05-04 00:52 | 5.88903 | 43.55300 | 31936 ft | 498 kts | 336° |
| 2026-05-04 00:52 | 5.95237 | 43.52443 | 31929 ft | 498 kts | 336° |
| 2026-05-04 00:53 | 6.01530 | 43.49604 | 31929 ft | 497 kts | 336° |
| 2026-05-04 00:53 | 6.07834 | 43.46759 | 31932 ft | 497 kts | 336° |
| 2026-05-04 00:54 | 6.14161 | 43.43903 | 31932 ft | 497 kts | 336° |
| 2026-05-04 00:54 | 6.20446 | 43.41066 | 31931 ft | 497 kts | 336° |
| 2026-05-04 00:55 | 6.26751 | 43.38218 | 31935 ft | 497 kts | 336° |
| 2026-05-04 00:55 | 6.33075 | 43.35361 | 31935 ft | 497 kts | 336° |
| 2026-05-04 00:56 | 6.39353 | 43.32525 | 31935 ft | 497 kts | 336° |
| 2026-05-04 00:56 | 6.45660 | 43.29674 | 31938 ft | 497 kts | 336° |
| 2026-05-04 00:57 | 6.52007 | 43.26805 | 31941 ft | 498 kts | 336° |
| 2026-05-04 00:57 | 6.58318 | 43.23950 | 31945 ft | 497 kts | 336° |
| 2026-05-04 00:58 | 6.64625 | 43.21098 | 31946 ft | 497 kts | 336° |
| 2026-05-04 00:58 | 6.70911 | 43.18254 | 31947 ft | 497 kts | 336° |
| 2026-05-04 00:59 | 6.77231 | 43.15393 | 31950 ft | 496 kts | 336° |
| 2026-05-04 00:59 | 6.83493 | 43.12558 | 31953 ft | 496 kts | 336° |
| 2026-05-04 01:00 | 6.89780 | 43.09711 | 31953 ft | 495 kts | 336° |
| 2026-05-04 01:00 | 6.96094 | 43.06850 | 31955 ft | 495 kts | 336° |
| 2026-05-04 01:01 | 7.02357 | 43.04013 | 31961 ft | 495 kts | 336° |
| 2026-05-04 01:01 | 7.08642 | 43.01164 | 31967 ft | 495 kts | 336° |
| 2026-05-04 01:02 | 7.14921 | 42.98317 | 31972 ft | 495 kts | 336° |
| 2026-05-04 01:02 | 7.21195 | 42.95471 | 31970 ft | 496 kts | 335° |
| 2026-05-04 01:03 | 7.27469 | 42.92625 | 31971 ft | 496 kts | 335° |
| 2026-05-04 01:03 | 7.33752 | 42.89773 | 31977 ft | 496 kts | 335° |
| 2026-05-04 01:04 | 7.40026 | 42.86925 | 31978 ft | 496 kts | 335° |
| 2026-05-04 01:04 | 7.46327 | 42.84064 | 31976 ft | 496 kts | 335° |
| 2026-05-04 01:05 | 7.52600 | 42.81214 | 31976 ft | 496 kts | 335° |
| 2026-05-04 01:05 | 7.58907 | 42.78349 | 31979 ft | 496 kts | 335° |
| 2026-05-04 01:06 | 7.65189 | 42.75493 | 31979 ft | 496 kts | 335° |
| 2026-05-04 01:06 | 7.71498 | 42.72624 | 31978 ft | 496 kts | 335° |
| 2026-05-04 01:07 | 7.77772 | 42.69771 | 31982 ft | 496 kts | 335° |
| 2026-05-04 01:07 | 7.84047 | 42.66916 | 31982 ft | 496 kts | 335° |
| 2026-05-04 01:08 | 7.90330 | 42.64056 | 31984 ft | 496 kts | 335° |
| 2026-05-04 01:08 | 7.96639 | 42.61184 | 31987 ft | 496 kts | 335° |
| 2026-05-04 01:09 | 8.02938 | 42.58315 | 31992 ft | 496 kts | 335° |
| 2026-05-04 01:09 | 8.09226 | 42.55450 | 31991 ft | 496 kts | 335° |
| 2026-05-04 01:10 | 8.15480 | 42.52600 | 31997 ft | 495 kts | 335° |
| 2026-05-04 01:10 | 8.21766 | 42.49734 | 31997 ft | 495 kts | 335° |
| 2026-05-04 01:11 | 8.28060 | 42.46863 | 32002 ft | 495 kts | 335° |
| 2026-05-04 01:11 | 8.34310 | 42.44011 | 32006 ft | 495 kts | 335° |
| 2026-05-04 01:12 | 8.40598 | 42.41142 | 32010 ft | 495 kts | 335° |
| 2026-05-04 01:12 | 8.46883 | 42.38272 | 32010 ft | 496 kts | 335° |
| 2026-05-04 01:13 | 8.53162 | 42.35404 | 32016 ft | 496 kts | 335° |
| 2026-05-04 01:13 | 8.59438 | 42.32537 | 32018 ft | 496 kts | 335° |
| 2026-05-04 01:14 | 8.65729 | 42.29662 | 32021 ft | 496 kts | 336° |
| 2026-05-04 01:14 | 8.72034 | 42.26779 | 32020 ft | 497 kts | 336° |
| 2026-05-04 01:15 | 8.78334 | 42.23897 | 32027 ft | 497 kts | 336° |
| 2026-05-04 01:15 | 8.84627 | 42.21018 | 32031 ft | 497 kts | 336° |
| 2026-05-04 01:16 | 8.90944 | 42.18126 | 32035 ft | 497 kts | 336° |
| 2026-05-04 01:16 | 8.97210 | 42.15256 | 32037 ft | 497 kts | 336° |
| 2026-05-04 01:17 | 9.03510 | 42.12370 | 32044 ft | 497 kts | 336° |
| 2026-05-04 01:17 | 9.09819 | 42.09479 | 32046 ft | 497 kts | 336° |
| 2026-05-04 01:18 | 9.16114 | 42.06593 | 32051 ft | 497 kts | 336° |
| 2026-05-04 01:18 | 9.22402 | 42.03709 | 32051 ft | 497 kts | 336° |
| 2026-05-04 01:19 | 9.28709 | 42.00816 | 32053 ft | 497 kts | 336° |
| 2026-05-04 01:19 | 9.35009 | 41.97924 | 32044 ft | 497 kts | 335° |
| 2026-05-04 01:20 | 9.41275 | 41.95046 | 32035 ft | 497 kts | 335° |
| 2026-05-04 01:20 | 9.47573 | 41.92153 | 32024 ft | 497 kts | 335° |
| 2026-05-04 01:21 | 9.53873 | 41.89258 | 32007 ft | 497 kts | 335° |
| 2026-05-04 01:21 | 9.60177 | 41.86358 | 31996 ft | 497 kts | 335° |
| 2026-05-04 01:22 | 9.66525 | 41.83587 | 31978 ft | 496 kts | 340° |
| 2026-05-04 01:22 | 9.73007 | 41.81276 | 31964 ft | 496 kts | 341° |
| 2026-05-04 01:23 | 9.79545 | 41.78992 | 31946 ft | 496 kts | 341° |
| 2026-05-04 01:23 | 9.86071 | 41.76686 | 31930 ft | 496 kts | 340° |
| 2026-05-04 01:24 | 9.92552 | 41.74374 | 31923 ft | 496 kts | 340° |
| 2026-05-04 01:24 | 9.99093 | 41.72033 | 31920 ft | 496 kts | 340° |
| 2026-05-04 01:25 | 10.05588 | 41.69708 | 31915 ft | 496 kts | 340° |
| 2026-05-04 01:25 | 10.12079 | 41.67385 | 31915 ft | 496 kts | 340° |
| 2026-05-04 01:26 | 10.18606 | 41.65049 | 31914 ft | 497 kts | 340° |
| 2026-05-04 01:26 | 10.25140 | 41.62709 | 31913 ft | 497 kts | 340° |
| 2026-05-04 01:27 | 10.31634 | 41.60382 | 31913 ft | 497 kts | 340° |
| 2026-05-04 01:27 | 10.38181 | 41.58036 | 31910 ft | 497 kts | 340° |
| 2026-05-04 01:28 | 10.44662 | 41.55711 | 31904 ft | 497 kts | 340° |
| 2026-05-04 01:28 | 10.51194 | 41.53368 | 31905 ft | 497 kts | 340° |
| 2026-05-04 01:29 | 10.57746 | 41.51016 | 31905 ft | 497 kts | 340° |
| 2026-05-04 01:29 | 10.64261 | 41.48677 | 31901 ft | 498 kts | 340° |
| 2026-05-04 01:30 | 10.70762 | 41.46341 | 31897 ft | 498 kts | 340° |
| 2026-05-04 01:30 | 10.77292 | 41.43994 | 31896 ft | 498 kts | 340° |
| 2026-05-04 01:31 | 10.83810 | 41.41651 | 31892 ft | 498 kts | 340° |
| 2026-05-04 01:31 | 10.90336 | 41.39303 | 31891 ft | 497 kts | 340° |
| 2026-05-04 01:32 | 10.96860 | 41.36955 | 31886 ft | 497 kts | 340° |
| 2026-05-04 01:32 | 11.03389 | 41.34604 | 31889 ft | 497 kts | 340° |
| 2026-05-04 01:33 | 11.09924 | 41.32250 | 31884 ft | 497 kts | 340° |
| 2026-05-04 01:33 | 11.16422 | 41.29908 | 31885 ft | 497 kts | 340° |
| 2026-05-04 01:34 | 11.22958 | 41.27551 | 31883 ft | 497 kts | 340° |
| 2026-05-04 01:34 | 11.28374 | 41.25597 | 31886 ft | 498 kts | 340° |
| 2026-05-04 01:35 | 11.34919 | 41.23235 | 31879 ft | 498 kts | 340° |
| 2026-05-04 01:35 | 11.41422 | 41.20887 | 31882 ft | 498 kts | 340° |
| 2026-05-04 01:36 | 11.47977 | 41.18519 | 31876 ft | 498 kts | 340° |
| 2026-05-04 01:36 | 11.54503 | 41.16160 | 31880 ft | 497 kts | 340° |
| 2026-05-04 01:37 | 11.60990 | 41.13814 | 31876 ft | 497 kts | 340° |
| 2026-05-04 01:37 | 11.67534 | 41.11447 | 31876 ft | 497 kts | 340° |
| 2026-05-04 01:38 | 11.74043 | 41.09091 | 31877 ft | 497 kts | 340° |
| 2026-05-04 01:38 | 11.80544 | 41.06736 | 31877 ft | 497 kts | 340° |
| 2026-05-04 01:39 | 11.87059 | 41.04376 | 31880 ft | 497 kts | 340° |
| 2026-05-04 01:39 | 11.93585 | 41.02010 | 31884 ft | 497 kts | 340° |
| 2026-05-04 01:40 | 12.00105 | 40.99645 | 31884 ft | 497 kts | 340° |
| 2026-05-04 01:40 | 12.06613 | 40.97283 | 31888 ft | 497 kts | 340° |
| 2026-05-04 01:41 | 12.13150 | 40.94909 | 31893 ft | 497 kts | 340° |
| 2026-05-04 01:41 | 12.19659 | 40.92545 | 31895 ft | 497 kts | 340° |
| 2026-05-04 01:42 | 12.26188 | 40.90172 | 31898 ft | 498 kts | 340° |
| 2026-05-04 01:42 | 12.32730 | 40.87793 | 31897 ft | 498 kts | 340° |
| 2026-05-04 01:43 | 12.39237 | 40.85425 | 31896 ft | 498 kts | 340° |
| 2026-05-04 01:43 | 12.45792 | 40.83039 | 31890 ft | 498 kts | 340° |
| 2026-05-04 01:44 | 12.52275 | 40.80677 | 31890 ft | 498 kts | 340° |
| 2026-05-04 01:44 | 12.58817 | 40.78293 | 31886 ft | 498 kts | 340° |
| 2026-05-04 01:45 | 12.65355 | 40.75909 | 31888 ft | 498 kts | 340° |
| 2026-05-04 01:45 | 12.75113 | 40.72349 | 31878 ft | 498 kts | 340° |
| 2026-05-04 01:46 | 12.81654 | 40.69961 | 31876 ft | 498 kts | 340° |
| 2026-05-04 01:46 | 12.88179 | 40.67577 | 31877 ft | 498 kts | 340° |
| 2026-05-04 01:47 | 12.94712 | 40.65189 | 31872 ft | 498 kts | 340° |
| 2026-05-04 01:47 | 13.01199 | 40.62816 | 31868 ft | 498 kts | 340° |
| 2026-05-04 01:48 | 13.07721 | 40.60430 | 31866 ft | 498 kts | 340° |
| 2026-05-04 01:48 | 13.14247 | 40.58040 | 31865 ft | 498 kts | 340° |
| 2026-05-04 01:49 | 13.20778 | 40.55647 | 31861 ft | 497 kts | 340° |
| 2026-05-04 01:49 | 13.27299 | 40.53257 | 31861 ft | 497 kts | 340° |
| 2026-05-04 01:50 | 13.33824 | 40.50864 | 31859 ft | 497 kts | 340° |
| 2026-05-04 01:50 | 13.40325 | 40.48478 | 31858 ft | 497 kts | 340° |
| 2026-05-04 01:51 | 13.46818 | 40.46094 | 31857 ft | 497 kts | 340° |
| 2026-05-04 01:51 | 13.53335 | 40.43699 | 31855 ft | 497 kts | 340° |
| 2026-05-04 01:52 | 13.59844 | 40.41307 | 31855 ft | 497 kts | 340° |
| 2026-05-04 01:52 | 13.66402 | 40.38894 | 31856 ft | 498 kts | 340° |
| 2026-05-04 01:53 | 13.72905 | 40.36501 | 31854 ft | 498 kts | 340° |
| 2026-05-04 01:53 | 13.79428 | 40.34099 | 31856 ft | 498 kts | 340° |
| 2026-05-04 01:54 | 13.85941 | 40.31699 | 31856 ft | 498 kts | 339° |
| 2026-05-04 01:54 | 13.92446 | 40.29301 | 31859 ft | 498 kts | 339° |
| 2026-05-04 01:55 | 13.98958 | 40.26898 | 31860 ft | 498 kts | 339° |
| 2026-05-04 01:55 | 14.05470 | 40.24494 | 31870 ft | 498 kts | 339° |
| 2026-05-04 01:56 | 14.12008 | 40.22079 | 31870 ft | 498 kts | 339° |
| 2026-05-04 01:56 | 14.18504 | 40.19678 | 31873 ft | 497 kts | 339° |
| 2026-05-04 01:57 | 14.25041 | 40.17261 | 31876 ft | 497 kts | 339° |
| 2026-05-04 01:57 | 14.31516 | 40.14865 | 31883 ft | 497 kts | 339° |
| 2026-05-04 01:58 | 14.38015 | 40.12458 | 31880 ft | 496 kts | 339° |
| 2026-05-04 01:58 | 14.44508 | 40.10052 | 31886 ft | 496 kts | 339° |
| 2026-05-04 01:59 | 14.51047 | 40.07628 | 31888 ft | 497 kts | 339° |
| 2026-05-04 01:59 | 14.57537 | 40.05220 | 31885 ft | 497 kts | 339° |
| 2026-05-04 02:00 | 14.64058 | 40.02800 | 31887 ft | 497 kts | 339° |
| 2026-05-04 02:00 | 14.70558 | 40.00385 | 31887 ft | 498 kts | 339° |
| 2026-05-04 02:01 | 14.77091 | 39.97957 | 31883 ft | 498 kts | 339° |
| 2026-05-04 02:01 | 14.83578 | 39.95545 | 31883 ft | 498 kts | 339° |
| 2026-05-04 02:02 | 14.90113 | 39.93112 | 31875 ft | 498 kts | 339° |
| 2026-05-04 02:02 | 14.96640 | 39.90682 | 31885 ft | 497 kts | 339° |
| 2026-05-04 02:03 | 15.03132 | 39.88263 | 31877 ft | 498 kts | 339° |
| 2026-05-04 02:03 | 15.09629 | 39.85840 | 31878 ft | 498 kts | 339° |
| 2026-05-04 02:04 | 15.16172 | 39.83398 | 31874 ft | 498 kts | 339° |
| 2026-05-04 02:04 | 15.22665 | 39.80975 | 31863 ft | 498 kts | 339° |
| 2026-05-04 02:05 | 15.29194 | 39.78535 | 31864 ft | 498 kts | 339° |
| 2026-05-04 02:05 | 15.35719 | 39.76096 | 31860 ft | 498 kts | 339° |
| 2026-05-04 02:06 | 15.42232 | 39.73659 | 31860 ft | 498 kts | 339° |
| 2026-05-04 02:06 | 15.48708 | 39.71235 | 31857 ft | 498 kts | 339° |
| 2026-05-04 02:07 | 15.55258 | 39.68781 | 31850 ft | 498 kts | 339° |
| 2026-05-04 02:07 | 15.61763 | 39.66343 | 31847 ft | 497 kts | 339° |
| 2026-05-04 02:08 | 15.68261 | 39.63905 | 31844 ft | 497 kts | 339° |
| 2026-05-04 02:08 | 15.74771 | 39.61462 | 31840 ft | 497 kts | 338° |
| 2026-05-04 02:09 | 15.81251 | 39.59027 | 31841 ft | 497 kts | 338° |
| 2026-05-04 02:09 | 15.87764 | 39.56579 | 31839 ft | 497 kts | 338° |
| 2026-05-04 02:10 | 15.94288 | 39.54125 | 31839 ft | 497 kts | 338° |
| 2026-05-04 02:10 | 16.00770 | 39.51685 | 31839 ft | 497 kts | 338° |
| 2026-05-04 02:11 | 16.07275 | 39.49235 | 31838 ft | 497 kts | 338° |
| 2026-05-04 02:11 | 16.13768 | 39.46787 | 31838 ft | 497 kts | 338° |
| 2026-05-04 02:12 | 16.20280 | 39.44331 | 31838 ft | 497 kts | 338° |
| 2026-05-04 02:12 | 16.26813 | 39.41865 | 31837 ft | 497 kts | 338° |
| 2026-05-04 02:13 | 16.33304 | 39.39413 | 31836 ft | 497 kts | 338° |
| 2026-05-04 02:13 | 16.39780 | 39.36966 | 31841 ft | 497 kts | 338° |
| 2026-05-04 02:14 | 16.46308 | 39.34496 | 31840 ft | 497 kts | 338° |
| 2026-05-04 02:14 | 16.52799 | 39.32039 | 31838 ft | 497 kts | 338° |
| 2026-05-04 02:15 | 16.59280 | 39.29584 | 31837 ft | 497 kts | 338° |
| 2026-05-04 02:15 | 16.65768 | 39.27125 | 31837 ft | 497 kts | 338° |
| 2026-05-04 02:16 | 16.72304 | 39.24645 | 31836 ft | 497 kts | 338° |
| 2026-05-04 02:16 | 16.78812 | 39.22175 | 31841 ft | 497 kts | 338° |
| 2026-05-04 02:17 | 16.85285 | 39.19715 | 31841 ft | 497 kts | 338° |
| 2026-05-04 02:17 | 16.91790 | 39.17242 | 31838 ft | 497 kts | 338° |
| 2026-05-04 02:18 | 16.98268 | 39.14777 | 31840 ft | 497 kts | 338° |
| 2026-05-04 02:18 | 17.04757 | 39.12307 | 31839 ft | 497 kts | 337° |
| 2026-05-04 02:19 | 17.11286 | 39.09819 | 31839 ft | 497 kts | 337° |
| 2026-05-04 02:19 | 17.17791 | 39.07338 | 31841 ft | 497 kts | 337° |
| 2026-05-04 02:20 | 17.24289 | 39.04858 | 31842 ft | 497 kts | 337° |
| 2026-05-04 02:20 | 17.30759 | 39.02387 | 31842 ft | 497 kts | 337° |
| 2026-05-04 02:21 | 17.37246 | 38.99910 | 31843 ft | 497 kts | 338° |
| 2026-05-04 02:21 | 17.44039 | 38.98228 | 31851 ft | 502 kts | 350° |
| 2026-05-04 02:22 | 17.51000 | 38.97963 | 31849 ft | 505 kts | 359° |
| 2026-05-04 02:22 | 17.58032 | 38.98251 | 31847 ft | 506 kts | 360° |
| 2026-05-04 02:23 | 17.63907 | 38.98505 | 31845 ft | 507 kts | 359° |
| 2026-05-04 02:23 | 17.70966 | 38.98769 | 31845 ft | 507 kts | 359° |
| 2026-05-04 02:24 | 17.77995 | 38.99004 | 31848 ft | 507 kts | 359° |
| 2026-05-04 02:24 | 17.85076 | 38.99234 | 31848 ft | 508 kts | 359° |
| 2026-05-04 02:25 | 17.92112 | 38.99464 | 31845 ft | 508 kts | 359° |
| 2026-05-04 02:25 | 17.99179 | 38.99698 | 31846 ft | 508 kts | 359° |
| 2026-05-04 02:26 | 18.06260 | 38.99933 | 31847 ft | 508 kts | 359° |
| 2026-05-04 02:26 | 18.13302 | 39.00166 | 31850 ft | 508 kts | 359° |
| 2026-05-04 02:27 | 18.20392 | 39.00402 | 31850 ft | 508 kts | 359° |
| 2026-05-04 02:27 | 18.27448 | 39.00636 | 31850 ft | 508 kts | 359° |
| 2026-05-04 02:28 | 18.34520 | 39.00871 | 31849 ft | 508 kts | 359° |
| 2026-05-04 02:28 | 18.41605 | 39.01107 | 31850 ft | 508 kts | 359° |
| 2026-05-04 02:29 | 18.48669 | 39.01343 | 31851 ft | 508 kts | 359° |
| 2026-05-04 02:29 | 18.55740 | 39.01578 | 31855 ft | 508 kts | 359° |
| 2026-05-04 02:30 | 18.62816 | 39.01814 | 31853 ft | 508 kts | 359° |
| 2026-05-04 02:30 | 18.69891 | 39.02051 | 31852 ft | 508 kts | 359° |
| 2026-05-04 02:31 | 18.76922 | 39.02286 | 31853 ft | 508 kts | 358° |
| 2026-05-04 02:31 | 18.83970 | 39.02522 | 31852 ft | 508 kts | 358° |
| 2026-05-04 02:32 | 18.91030 | 39.02758 | 31851 ft | 508 kts | 358° |
| 2026-05-04 02:32 | 18.98107 | 39.02995 | 31854 ft | 508 kts | 358° |
| 2026-05-04 02:33 | 19.05175 | 39.03232 | 31854 ft | 508 kts | 358° |
| 2026-05-04 02:33 | 19.12200 | 39.03468 | 31855 ft | 508 kts | 358° |
| 2026-05-04 02:34 | 19.19270 | 39.03705 | 31853 ft | 507 kts | 358° |
| 2026-05-04 02:34 | 19.26355 | 39.03944 | 31853 ft | 507 kts | 358° |
| 2026-05-04 02:35 | 19.33371 | 39.04180 | 31851 ft | 507 kts | 358° |
| 2026-05-04 02:35 | 19.40470 | 39.04419 | 31853 ft | 507 kts | 358° |
| 2026-05-04 02:36 | 19.47515 | 39.04656 | 31852 ft | 507 kts | 358° |
| 2026-05-04 02:36 | 19.54563 | 39.04894 | 31856 ft | 507 kts | 358° |
| 2026-05-04 02:37 | 19.61597 | 39.05132 | 31854 ft | 507 kts | 358° |
| 2026-05-04 02:37 | 19.68636 | 39.05370 | 31857 ft | 507 kts | 358° |
| 2026-05-04 02:38 | 19.75705 | 39.05609 | 31855 ft | 507 kts | 358° |
| 2026-05-04 02:38 | 19.82780 | 39.05848 | 31855 ft | 507 kts | 358° |
| 2026-05-04 02:39 | 19.89805 | 39.06086 | 31852 ft | 507 kts | 358° |
| 2026-05-04 02:39 | 19.96882 | 39.06326 | 31851 ft | 507 kts | 358° |
| 2026-05-04 02:40 | 20.03932 | 39.06566 | 31855 ft | 507 kts | 358° |
| 2026-05-04 02:40 | 20.11010 | 39.06806 | 31857 ft | 507 kts | 358° |
| 2026-05-04 02:41 | 20.18036 | 39.07045 | 31856 ft | 508 kts | 358° |
| 2026-05-04 02:41 | 20.25103 | 39.07286 | 31858 ft | 508 kts | 358° |
| 2026-05-04 02:42 | 20.32168 | 39.07526 | 31855 ft | 508 kts | 358° |
| 2026-05-04 02:42 | 20.39216 | 39.07767 | 31856 ft | 508 kts | 358° |
| 2026-05-04 02:43 | 20.46308 | 39.08009 | 31859 ft | 508 kts | 358° |
| 2026-05-04 02:43 | 20.53391 | 39.08251 | 31861 ft | 508 kts | 358° |
| 2026-05-04 02:44 | 20.60468 | 39.08493 | 31859 ft | 508 kts | 357° |
| 2026-05-04 02:44 | 20.67492 | 39.08733 | 31858 ft | 509 kts | 357° |
| 2026-05-04 02:45 | 20.74598 | 39.08977 | 31853 ft | 509 kts | 357° |
| 2026-05-04 02:45 | 20.81654 | 39.09219 | 31854 ft | 509 kts | 357° |
| 2026-05-04 02:46 | 20.88715 | 39.09461 | 31859 ft | 509 kts | 357° |
| 2026-05-04 02:46 | 20.95800 | 39.09705 | 31861 ft | 509 kts | 357° |
| 2026-05-04 02:47 | 21.02912 | 39.09949 | 31865 ft | 509 kts | 357° |
| 2026-05-04 02:47 | 21.09961 | 39.10192 | 31860 ft | 509 kts | 357° |
| 2026-05-04 02:48 | 21.17027 | 39.10435 | 31857 ft | 509 kts | 357° |
| 2026-05-04 02:48 | 21.24144 | 39.10681 | 31859 ft | 510 kts | 357° |
| 2026-05-04 02:49 | 21.31200 | 39.10924 | 31857 ft | 510 kts | 356° |
| 2026-05-04 02:49 | 21.38312 | 39.11170 | 31855 ft | 510 kts | 356° |
| 2026-05-04 02:50 | 21.45408 | 39.11415 | 31854 ft | 510 kts | 356° |
| 2026-05-04 02:50 | 21.52500 | 39.11661 | 31854 ft | 510 kts | 356° |
| 2026-05-04 02:51 | 21.59611 | 39.11908 | 31858 ft | 511 kts | 356° |
| 2026-05-04 02:51 | 21.66698 | 39.12077 | 31845 ft | 503 kts | 349° |
| 2026-05-04 02:52 | 21.70032 | 39.11338 | 31853 ft | 489 kts | 333° |
| 2026-05-04 02:52 | 21.73052 | 39.09743 | 31869 ft | 479 kts | 321° |
| 2026-05-04 02:52 | 21.75614 | 39.07517 | 31846 ft | 467 kts | 307° |
| 2026-05-04 02:52 | 21.77755 | 39.04914 | 31865 ft | 465 kts | 306° |
| 2026-05-04 02:53 | 21.82127 | 38.99704 | 31862 ft | 471 kts | 307° |
| 2026-05-04 02:53 | 21.86599 | 38.94492 | 31869 ft | 475 kts | 308° |
| 2026-05-04 02:54 | 21.91079 | 38.89298 | 31856 ft | 475 kts | 308° |
| 2026-05-04 02:54 | 21.95582 | 38.84073 | 31853 ft | 474 kts | 308° |
| 2026-05-04 02:55 | 22.02291 | 38.76271 | 31863 ft | 471 kts | 307° |
| 2026-05-04 02:56 | 22.06733 | 38.71093 | 31865 ft | 469 kts | 307° |
| 2026-05-04 02:56 | 22.11135 | 38.65958 | 31858 ft | 468 kts | 307° |
| 2026-05-04 02:57 | 22.15556 | 38.60795 | 31867 ft | 468 kts | 307° |
| 2026-05-04 02:57 | 22.19976 | 38.55628 | 31859 ft | 468 kts | 307° |
| 2026-05-04 02:58 | 22.24399 | 38.50453 | 31861 ft | 469 kts | 307° |
| 2026-05-04 02:58 | 22.28826 | 38.45268 | 31862 ft | 469 kts | 307° |
| 2026-05-04 02:59 | 22.33252 | 38.40080 | 31867 ft | 470 kts | 307° |
| 2026-05-04 02:59 | 22.37677 | 38.34886 | 31869 ft | 470 kts | 307° |
| 2026-05-04 03:00 | 22.42084 | 38.29710 | 31873 ft | 470 kts | 307° |
| 2026-05-04 03:00 | 22.46515 | 38.24500 | 31869 ft | 470 kts | 307° |
| 2026-05-04 03:01 | 22.50947 | 38.19283 | 31874 ft | 470 kts | 307° |
| 2026-05-04 03:01 | 22.55381 | 38.14059 | 31877 ft | 470 kts | 307° |
| 2026-05-04 03:02 | 22.59779 | 38.08872 | 31875 ft | 470 kts | 307° |
| 2026-05-04 03:02 | 22.64210 | 38.03640 | 31876 ft | 470 kts | 307° |
| 2026-05-04 03:03 | 22.68624 | 37.98423 | 31871 ft | 470 kts | 306° |
| 2026-05-04 03:03 | 22.73039 | 37.93201 | 31877 ft | 469 kts | 306° |
| 2026-05-04 03:04 | 22.77409 | 37.88025 | 31880 ft | 468 kts | 306° |
| 2026-05-04 03:04 | 22.81816 | 37.82800 | 31874 ft | 468 kts | 306° |
| 2026-05-04 03:05 | 22.86203 | 37.77593 | 31874 ft | 467 kts | 306° |
| 2026-05-04 03:05 | 22.90562 | 37.72416 | 31873 ft | 467 kts | 306° |
| 2026-05-04 03:06 | 22.94939 | 37.67210 | 31872 ft | 466 kts | 306° |
| 2026-05-04 03:06 | 22.99312 | 37.62005 | 31870 ft | 466 kts | 306° |
| 2026-05-04 03:07 | 23.03683 | 37.56795 | 31876 ft | 466 kts | 306° |
| 2026-05-04 03:07 | 23.08015 | 37.51628 | 31875 ft | 465 kts | 306° |
| 2026-05-04 03:08 | 23.12372 | 37.46425 | 31875 ft | 465 kts | 306° |
| 2026-05-04 03:08 | 23.16727 | 37.41219 | 31880 ft | 465 kts | 306° |
| 2026-05-04 03:09 | 23.21076 | 37.36014 | 31878 ft | 465 kts | 306° |
| 2026-05-04 03:09 | 23.25400 | 37.30835 | 31881 ft | 464 kts | 306° |
| 2026-05-04 03:10 | 23.29745 | 37.25625 | 31882 ft | 464 kts | 306° |
| 2026-05-04 03:10 | 23.34081 | 37.20420 | 31887 ft | 464 kts | 306° |
| 2026-05-04 03:11 | 23.38410 | 37.15218 | 31888 ft | 464 kts | 306° |
| 2026-05-04 03:11 | 23.42746 | 37.10002 | 31889 ft | 464 kts | 306° |
| 2026-05-04 03:12 | 23.46346 | 37.05667 | 31889 ft | 464 kts | 306° |
| 2026-05-04 03:12 | 23.51378 | 36.99601 | 31889 ft | 464 kts | 305° |
| 2026-05-04 03:13 | 23.54981 | 36.95254 | 31892 ft | 464 kts | 305° |
| 2026-05-04 03:13 | 23.59308 | 36.90028 | 31894 ft | 464 kts | 305° |
| 2026-05-04 03:14 | 23.63633 | 36.84798 | 31895 ft | 464 kts | 305° |
| 2026-05-04 03:14 | 23.67964 | 36.79556 | 31895 ft | 464 kts | 305° |
| 2026-05-04 03:15 | 23.72295 | 36.74309 | 31893 ft | 465 kts | 305° |
| 2026-05-04 03:15 | 23.76622 | 36.69060 | 31898 ft | 465 kts | 305° |
| 2026-05-04 03:16 | 23.80929 | 36.63831 | 31902 ft | 465 kts | 305° |
| 2026-05-04 03:16 | 23.85251 | 36.58576 | 31898 ft | 465 kts | 305° |
| 2026-05-04 03:17 | 23.89560 | 36.53333 | 31901 ft | 465 kts | 305° |
| 2026-05-04 03:17 | 23.93877 | 36.48075 | 31902 ft | 465 kts | 305° |
| 2026-05-04 03:18 | 23.98207 | 36.42793 | 31903 ft | 465 kts | 305° |
| 2026-05-04 03:18 | 24.02496 | 36.37557 | 31908 ft | 464 kts | 305° |
| 2026-05-04 03:19 | 24.06803 | 36.32293 | 31910 ft | 464 kts | 304° |
| 2026-05-04 03:19 | 24.11114 | 36.27019 | 31915 ft | 463 kts | 304° |
| 2026-05-04 03:20 | 24.15392 | 36.21780 | 31917 ft | 463 kts | 304° |
| 2026-05-04 03:20 | 24.19702 | 36.16495 | 31920 ft | 462 kts | 304° |
| 2026-05-04 03:21 | 24.23967 | 36.11260 | 31907 ft | 461 kts | 304° |
| 2026-05-04 03:21 | 24.28239 | 36.06011 | 31915 ft | 460 kts | 304° |
| 2026-05-04 03:22 | 24.32468 | 36.00808 | 31926 ft | 459 kts | 304° |
| 2026-05-04 03:22 | 24.36712 | 35.95581 | 31919 ft | 458 kts | 304° |
| 2026-05-04 03:23 | 24.40948 | 35.90358 | 31929 ft | 458 kts | 304° |
| 2026-05-04 03:23 | 24.45183 | 35.85131 | 31927 ft | 458 kts | 304° |
| 2026-05-04 03:24 | 24.49414 | 35.79902 | 31931 ft | 457 kts | 304° |
| 2026-05-04 03:24 | 24.53617 | 35.74704 | 31938 ft | 457 kts | 304° |
| 2026-05-04 03:25 | 24.57844 | 35.69468 | 31937 ft | 457 kts | 304° |
| 2026-05-04 03:25 | 24.62066 | 35.64234 | 31937 ft | 457 kts | 304° |
| 2026-05-04 03:26 | 24.66286 | 35.58998 | 31940 ft | 457 kts | 304° |
| 2026-05-04 03:26 | 24.70468 | 35.53803 | 31939 ft | 456 kts | 303° |
| 2026-05-04 03:27 | 24.74673 | 35.48572 | 31949 ft | 456 kts | 303° |
| 2026-05-04 03:27 | 24.78867 | 35.43350 | 31949 ft | 455 kts | 303° |
| 2026-05-04 03:28 | 24.83071 | 35.38110 | 31952 ft | 455 kts | 303° |
| 2026-05-04 03:28 | 24.87242 | 35.32905 | 31951 ft | 454 kts | 303° |
| 2026-05-04 03:29 | 24.91439 | 35.27661 | 31952 ft | 454 kts | 303° |
| 2026-05-04 03:29 | 24.95584 | 35.22477 | 31958 ft | 453 kts | 303° |
| 2026-05-04 03:30 | 24.99760 | 35.17249 | 31956 ft | 453 kts | 303° |
| 2026-05-04 03:30 | 25.03921 | 35.12032 | 31959 ft | 452 kts | 303° |
| 2026-05-04 03:31 | 25.08058 | 35.06842 | 31966 ft | 452 kts | 303° |
| 2026-05-04 03:31 | 25.12196 | 35.01643 | 31966 ft | 451 kts | 303° |
| 2026-05-04 03:32 | 25.16321 | 34.96455 | 31971 ft | 450 kts | 303° |
| 2026-05-04 03:32 | 25.20445 | 34.91263 | 31966 ft | 449 kts | 303° |
| 2026-05-04 03:33 | 25.24561 | 34.86075 | 31967 ft | 448 kts | 303° |
| 2026-05-04 03:33 | 25.28673 | 34.80886 | 31958 ft | 447 kts | 303° |
| 2026-05-04 03:34 | 25.32738 | 34.75750 | 31965 ft | 446 kts | 303° |
| 2026-05-04 03:34 | 25.36821 | 34.70585 | 31967 ft | 446 kts | 303° |
| 2026-05-04 03:35 | 25.40900 | 34.65421 | 31966 ft | 446 kts | 303° |
| 2026-05-04 03:35 | 25.44986 | 34.60241 | 31971 ft | 446 kts | 303° |
| 2026-05-04 03:36 | 25.49065 | 34.55063 | 31972 ft | 446 kts | 303° |
| 2026-05-04 03:36 | 25.53116 | 34.49918 | 31971 ft | 446 kts | 303° |
| 2026-05-04 03:37 | 25.57211 | 34.44708 | 31969 ft | 447 kts | 303° |
| 2026-05-04 03:37 | 25.61298 | 34.39506 | 31971 ft | 447 kts | 303° |
| 2026-05-04 03:38 | 25.65371 | 34.34314 | 31970 ft | 448 kts | 303° |
| 2026-05-04 03:38 | 25.69447 | 34.29112 | 31969 ft | 448 kts | 303° |
| 2026-05-04 03:39 | 25.73528 | 34.23897 | 31985 ft | 448 kts | 303° |
| 2026-05-04 03:39 | 25.77604 | 34.18684 | 31966 ft | 448 kts | 303° |
| 2026-05-04 03:40 | 25.81699 | 34.13444 | 31965 ft | 446 kts | 303° |
| 2026-05-04 03:40 | 25.85743 | 34.08259 | 31973 ft | 445 kts | 303° |
| 2026-05-04 03:41 | 25.89801 | 34.03053 | 31972 ft | 445 kts | 303° |
| 2026-05-04 03:41 | 25.93849 | 33.97849 | 31980 ft | 444 kts | 303° |
| 2026-05-04 03:42 | 25.97884 | 33.92658 | 31981 ft | 444 kts | 303° |
| 2026-05-04 03:42 | 26.01923 | 33.87454 | 31979 ft | 445 kts | 303° |
| 2026-05-04 03:43 | 26.05966 | 33.82241 | 31983 ft | 445 kts | 303° |
| 2026-05-04 03:43 | 26.09985 | 33.77052 | 31987 ft | 445 kts | 303° |
| 2026-05-04 03:44 | 26.14047 | 33.71803 | 31977 ft | 446 kts | 303° |
| 2026-05-04 03:44 | 26.18105 | 33.66555 | 31998 ft | 446 kts | 303° |
| 2026-05-04 03:45 | 26.22124 | 33.61347 | 31980 ft | 445 kts | 303° |
| 2026-05-04 03:45 | 26.26165 | 33.56108 | 31991 ft | 445 kts | 303° |
| 2026-05-04 03:46 | 26.30191 | 33.50880 | 31991 ft | 444 kts | 303° |
| 2026-05-04 03:46 | 26.34219 | 33.45644 | 32010 ft | 445 kts | 303° |
| 2026-05-04 03:47 | 26.38222 | 33.40434 | 32002 ft | 444 kts | 303° |
| 2026-05-04 03:47 | 26.42241 | 33.35199 | 32003 ft | 444 kts | 303° |
| 2026-05-04 03:48 | 26.46265 | 33.29949 | 32005 ft | 443 kts | 303° |
| 2026-05-04 03:48 | 26.50274 | 33.24714 | 32008 ft | 443 kts | 303° |
| 2026-05-04 03:49 | 26.54256 | 33.19507 | 32012 ft | 443 kts | 303° |
| 2026-05-04 03:49 | 26.58246 | 33.14284 | 32017 ft | 442 kts | 303° |
| 2026-05-04 03:50 | 26.62243 | 33.09046 | 32023 ft | 442 kts | 303° |
| 2026-05-04 03:50 | 26.66232 | 33.03811 | 32029 ft | 442 kts | 303° |
| 2026-05-04 03:51 | 26.70206 | 32.98591 | 32030 ft | 442 kts | 303° |
| 2026-05-04 03:51 | 26.74206 | 32.93329 | 32046 ft | 443 kts | 303° |
| 2026-05-04 03:52 | 26.78189 | 32.88084 | 32053 ft | 443 kts | 303° |
| 2026-05-04 03:52 | 26.82171 | 32.82834 | 32044 ft | 443 kts | 303° |
| 2026-05-04 03:53 | 26.86175 | 32.77549 | 32054 ft | 443 kts | 303° |
| 2026-05-04 03:53 | 26.90160 | 32.72284 | 32060 ft | 443 kts | 302° |
| 2026-05-04 03:54 | 26.94124 | 32.67039 | 32067 ft | 443 kts | 303° |
| 2026-05-04 03:54 | 26.98099 | 32.61773 | 32076 ft | 443 kts | 302° |
| 2026-05-04 03:55 | 27.02082 | 32.56490 | 32083 ft | 443 kts | 303° |
| 2026-05-04 03:55 | 27.06046 | 32.51227 | 32083 ft | 442 kts | 302° |
| 2026-05-04 03:56 | 27.10020 | 32.45944 | 32088 ft | 442 kts | 302° |
| 2026-05-04 03:56 | 27.13990 | 32.40660 | 32090 ft | 441 kts | 302° |
| 2026-05-04 03:57 | 27.17931 | 32.35409 | 32098 ft | 441 kts | 302° |
| 2026-05-04 03:57 | 27.21889 | 32.30126 | 32102 ft | 441 kts | 302° |
| 2026-05-04 03:58 | 27.27805 | 32.22220 | 32109 ft | 441 kts | 303° |
| 2026-05-04 03:58 | 27.31733 | 32.16963 | 32108 ft | 441 kts | 303° |
| 2026-05-04 03:59 | 27.35689 | 32.11662 | 32115 ft | 441 kts | 303° |
| 2026-05-04 03:59 | 27.39618 | 32.06391 | 32125 ft | 441 kts | 303° |
| 2026-05-04 04:00 | 27.43562 | 32.01093 | 32118 ft | 441 kts | 303° |
| 2026-05-04 04:00 | 27.47499 | 31.95800 | 32124 ft | 441 kts | 303° |
| 2026-05-04 04:01 | 27.51425 | 31.90513 | 32134 ft | 441 kts | 303° |
| 2026-05-04 04:01 | 27.54701 | 31.86096 | 32132 ft | 440 kts | 303° |
| 2026-05-04 04:02 | 27.58640 | 31.80782 | 32131 ft | 440 kts | 303° |
| 2026-05-04 04:02 | 27.62548 | 31.75501 | 32144 ft | 440 kts | 303° |
| 2026-05-04 04:03 | 27.66481 | 31.70180 | 32141 ft | 440 kts | 303° |
| 2026-05-04 04:03 | 27.70397 | 31.64876 | 32155 ft | 440 kts | 303° |
| 2026-05-04 04:04 | 27.74316 | 31.59559 | 32148 ft | 440 kts | 303° |
| 2026-05-04 04:04 | 27.78233 | 31.54241 | 32152 ft | 440 kts | 303° |
| 2026-05-04 04:05 | 27.82137 | 31.48933 | 32159 ft | 440 kts | 303° |
| 2026-05-04 04:05 | 27.86032 | 31.43630 | 32160 ft | 440 kts | 303° |
| 2026-05-04 04:06 | 27.89950 | 31.38291 | 32148 ft | 440 kts | 303° |
| 2026-05-04 04:06 | 27.93829 | 31.32997 | 32150 ft | 439 kts | 303° |
| 2026-05-04 04:07 | 27.97742 | 31.27649 | 32152 ft | 439 kts | 303° |
| 2026-05-04 04:07 | 28.01631 | 31.22328 | 32158 ft | 439 kts | 303° |
| 2026-05-04 04:08 | 28.05517 | 31.17014 | 32163 ft | 439 kts | 304° |
| 2026-05-04 04:08 | 28.09882 | 31.12127 | 32154 ft | 448 kts | 313° |
| 2026-05-04 04:09 | 28.14705 | 31.07673 | 32163 ft | 448 kts | 313° |
| 2026-05-04 04:09 | 28.19545 | 31.03196 | 32163 ft | 447 kts | 313° |
| 2026-05-04 04:10 | 28.24343 | 30.98728 | 32163 ft | 446 kts | 313° |
| 2026-05-04 04:10 | 28.29132 | 30.94249 | 32166 ft | 446 kts | 313° |
| 2026-05-04 04:11 | 28.33883 | 30.89797 | 32167 ft | 445 kts | 313° |
| 2026-05-04 04:11 | 28.38660 | 30.85315 | 32162 ft | 445 kts | 313° |
| 2026-05-04 04:12 | 28.43438 | 30.80828 | 32166 ft | 445 kts | 312° |
| 2026-05-04 04:12 | 28.48208 | 30.76342 | 32164 ft | 444 kts | 312° |
| 2026-05-04 04:13 | 28.52937 | 30.71890 | 32167 ft | 443 kts | 312° |
| 2026-05-04 04:13 | 28.57704 | 30.67396 | 32165 ft | 443 kts | 312° |
| 2026-05-04 04:14 | 28.62438 | 30.62927 | 32151 ft | 443 kts | 312° |
| 2026-05-04 04:14 | 28.67171 | 30.58456 | 32153 ft | 442 kts | 312° |
| 2026-05-04 04:15 | 28.71901 | 30.53982 | 32150 ft | 441 kts | 312° |
| 2026-05-04 04:15 | 28.76611 | 30.49520 | 32152 ft | 441 kts | 312° |
| 2026-05-04 04:16 | 28.81331 | 30.45044 | 32162 ft | 440 kts | 312° |
| 2026-05-04 04:16 | 28.86034 | 30.40579 | 32163 ft | 440 kts | 312° |
| 2026-05-04 04:17 | 28.90709 | 30.36134 | 32164 ft | 439 kts | 311° |
| 2026-05-04 04:17 | 28.95397 | 30.31672 | 32157 ft | 438 kts | 311° |
| 2026-05-04 04:18 | 29.00075 | 30.27213 | 32156 ft | 438 kts | 311° |
| 2026-05-04 04:18 | 29.04749 | 30.22754 | 32152 ft | 437 kts | 311° |
| 2026-05-04 04:19 | 29.09417 | 30.18296 | 32156 ft | 437 kts | 311° |
| 2026-05-04 04:19 | 29.14074 | 30.13841 | 32149 ft | 437 kts | 311° |
| 2026-05-04 04:20 | 29.18728 | 30.09384 | 32151 ft | 436 kts | 311° |
| 2026-05-04 04:20 | 29.23370 | 30.04933 | 32150 ft | 436 kts | 311° |
| 2026-05-04 04:21 | 29.28011 | 30.00476 | 32145 ft | 436 kts | 311° |
| 2026-05-04 04:21 | 29.32669 | 29.96000 | 32151 ft | 436 kts | 311° |
| 2026-05-04 04:22 | 29.37291 | 29.91552 | 32148 ft | 436 kts | 311° |
| 2026-05-04 04:22 | 29.41952 | 29.87061 | 32152 ft | 436 kts | 311° |
| 2026-05-04 04:23 | 29.46605 | 29.82572 | 32152 ft | 436 kts | 311° |
| 2026-05-04 04:23 | 29.51246 | 29.78089 | 32142 ft | 436 kts | 311° |
| 2026-05-04 04:24 | 29.55866 | 29.73622 | 32126 ft | 435 kts | 310° |
| 2026-05-04 04:24 | 29.60488 | 29.69147 | 32152 ft | 435 kts | 310° |
| 2026-05-04 04:25 | 29.65108 | 29.64667 | 32136 ft | 435 kts | 310° |
| 2026-05-04 04:25 | 29.69720 | 29.60190 | 32132 ft | 434 kts | 310° |
| 2026-05-04 04:26 | 29.74335 | 29.55704 | 32137 ft | 434 kts | 310° |
| 2026-05-04 04:26 | 29.78937 | 29.51225 | 32134 ft | 434 kts | 310° |
| 2026-05-04 04:27 | 29.83555 | 29.46726 | 32129 ft | 434 kts | 310° |
| 2026-05-04 04:27 | 29.88154 | 29.42239 | 32123 ft | 434 kts | 310° |
| 2026-05-04 04:28 | 29.92779 | 29.37722 | 32127 ft | 434 kts | 310° |
| 2026-05-04 04:28 | 29.97369 | 29.33232 | 32118 ft | 434 kts | 310° |
| 2026-05-04 04:29 | 30.01969 | 29.28726 | 32127 ft | 434 kts | 310° |
| 2026-05-04 04:29 | 30.06583 | 29.24202 | 32107 ft | 435 kts | 310° |
| 2026-05-04 04:30 | 30.11185 | 29.19685 | 32115 ft | 435 kts | 310° |
| 2026-05-04 04:30 | 30.15781 | 29.15167 | 32116 ft | 435 kts | 310° |
| 2026-05-04 04:31 | 30.20377 | 29.10644 | 32111 ft | 435 kts | 310° |
| 2026-05-04 04:31 | 30.24965 | 29.06125 | 32100 ft | 425 kts | 311° |
| 2026-05-04 04:32 | 30.29401 | 29.01761 | 32107 ft | 417 kts | 311° |
| 2026-05-04 04:32 | 30.33834 | 28.97373 | 32119 ft | 418 kts | 311° |
| 2026-05-04 04:33 | 30.38229 | 28.93019 | 32121 ft | 419 kts | 311° |
| 2026-05-04 04:33 | 30.42656 | 28.88631 | 32118 ft | 419 kts | 311° |
| 2026-05-04 04:34 | 30.47113 | 28.84213 | 32123 ft | 419 kts | 311° |
| 2026-05-04 04:34 | 30.51512 | 28.79847 | 32130 ft | 418 kts | 311° |
| 2026-05-04 04:35 | 30.55921 | 28.75465 | 32132 ft | 417 kts | 311° |
| 2026-05-04 04:35 | 30.60316 | 28.71091 | 32127 ft | 415 kts | 311° |
| 2026-05-04 04:36 | 30.64693 | 28.66730 | 32127 ft | 414 kts | 311° |
| 2026-05-04 04:36 | 30.69071 | 28.62361 | 32121 ft | 413 kts | 311° |
| 2026-05-04 04:37 | 30.77758 | 28.53676 | 32130 ft | 413 kts | 311° |
| 2026-05-04 04:38 | 30.82108 | 28.49318 | 32124 ft | 413 kts | 311° |
| 2026-05-04 04:38 | 30.86478 | 28.44936 | 32125 ft | 413 kts | 311° |
| 2026-05-04 04:39 | 30.90806 | 28.40591 | 32123 ft | 413 kts | 311° |
| 2026-05-04 04:39 | 30.95166 | 28.36208 | 32119 ft | 413 kts | 311° |
| 2026-05-04 04:40 | 30.99497 | 28.31849 | 32120 ft | 413 kts | 311° |
| 2026-05-04 04:40 | 31.03865 | 28.27447 | 32120 ft | 413 kts | 311° |
| 2026-05-04 04:41 | 31.08203 | 28.23069 | 32118 ft | 413 kts | 311° |
| 2026-05-04 04:41 | 31.12521 | 28.18708 | 32124 ft | 413 kts | 311° |
| 2026-05-04 04:42 | 31.16859 | 28.14320 | 32111 ft | 413 kts | 311° |
| 2026-05-04 04:42 | 31.21189 | 28.09933 | 32114 ft | 412 kts | 312° |
| 2026-05-04 04:43 | 31.25546 | 28.05516 | 32114 ft | 412 kts | 312° |
| 2026-05-04 04:43 | 31.29850 | 28.01145 | 32111 ft | 412 kts | 312° |
| 2026-05-04 04:44 | 31.34178 | 27.96745 | 32113 ft | 412 kts | 312° |
| 2026-05-04 04:44 | 31.38504 | 27.92341 | 32109 ft | 412 kts | 312° |
| 2026-05-04 04:45 | 31.42850 | 27.87911 | 32108 ft | 412 kts | 312° |
| 2026-05-04 04:47 | 31.57967 | 27.72459 | 32106 ft | 412 kts | 312° |
| 2026-05-04 04:47 | 31.62285 | 27.68033 | 32102 ft | 412 kts | 312° |
| 2026-05-04 04:48 | 31.66612 | 27.63591 | 32105 ft | 413 kts | 312° |
| 2026-05-04 04:49 | 31.77395 | 27.52497 | 32109 ft | 413 kts | 312° |
| 2026-05-04 04:49 | 31.81713 | 27.48046 | 32111 ft | 413 kts | 312° |
| 2026-05-04 04:50 | 31.85299 | 27.44343 | 32109 ft | 412 kts | 312° |
| 2026-05-04 04:50 | 31.90306 | 27.39169 | 32108 ft | 412 kts | 312° |
| 2026-05-04 04:51 | 31.93918 | 27.35431 | 32110 ft | 412 kts | 313° |
| 2026-05-04 04:51 | 31.98190 | 27.31003 | 32112 ft | 411 kts | 313° |
| 2026-05-04 04:52 | 32.02496 | 27.26536 | 32111 ft | 411 kts | 313° |
| 2026-05-04 04:52 | 32.06786 | 27.22079 | 32114 ft | 411 kts | 313° |
| 2026-05-04 04:53 | 32.11043 | 27.17651 | 32113 ft | 410 kts | 313° |
| 2026-05-04 04:53 | 32.15319 | 27.13197 | 32100 ft | 410 kts | 313° |
| 2026-05-04 04:54 | 32.19589 | 27.08743 | 32105 ft | 409 kts | 313° |
| 2026-05-04 04:54 | 32.23878 | 27.04265 | 32104 ft | 409 kts | 313° |
| 2026-05-04 04:55 | 32.28125 | 26.99823 | 32113 ft | 408 kts | 313° |
| 2026-05-04 04:55 | 32.32368 | 26.95381 | 32113 ft | 408 kts | 313° |
| 2026-05-04 04:56 | 32.36598 | 26.90946 | 32113 ft | 408 kts | 313° |
| 2026-05-04 04:56 | 32.40840 | 26.86492 | 32115 ft | 407 kts | 313° |
| 2026-05-04 04:57 | 32.45101 | 26.82013 | 32116 ft | 407 kts | 313° |
| 2026-05-04 04:57 | 32.49322 | 26.77570 | 32114 ft | 407 kts | 313° |
| 2026-05-04 04:58 | 32.53554 | 26.73110 | 32112 ft | 407 kts | 313° |
| 2026-05-04 04:58 | 32.57770 | 26.68661 | 32110 ft | 407 kts | 313° |
| 2026-05-04 04:59 | 32.61990 | 26.64201 | 32108 ft | 407 kts | 313° |
| 2026-05-04 04:59 | 32.66215 | 26.59731 | 32114 ft | 407 kts | 313° |
| 2026-05-04 05:00 | 32.70437 | 26.55257 | 32116 ft | 407 kts | 313° |
| 2026-05-04 05:01 | 32.76801 | 26.48504 | 32114 ft | 407 kts | 313° |
| 2026-05-04 05:01 | 32.80993 | 26.44047 | 32113 ft | 408 kts | 313° |
| 2026-05-04 05:02 | 32.85215 | 26.39554 | 32116 ft | 408 kts | 313° |
| 2026-05-04 05:02 | 32.89465 | 26.35024 | 32117 ft | 407 kts | 313° |
| 2026-05-04 05:03 | 32.93679 | 26.30526 | 32118 ft | 407 kts | 313° |
| 2026-05-04 05:04 | 33.02091 | 26.21531 | 32118 ft | 407 kts | 313° |
| 2026-05-04 05:04 | 33.06286 | 26.17036 | 32118 ft | 407 kts | 313° |
| 2026-05-04 05:06 | 33.23109 | 25.98948 | 32121 ft | 406 kts | 314° |
| 2026-05-04 05:07 | 33.27285 | 25.94443 | 32125 ft | 406 kts | 314° |
| 2026-05-04 05:07 | 33.31474 | 25.89918 | 32123 ft | 406 kts | 314° |
| 2026-05-04 05:09 | 33.50271 | 25.69537 | 32124 ft | 406 kts | 314° |
| 2026-05-04 05:10 | 33.54474 | 25.64962 | 32120 ft | 406 kts | 314° |
| 2026-05-04 05:10 | 33.58645 | 25.60416 | 32122 ft | 406 kts | 314° |
| 2026-05-04 05:11 | 33.62828 | 25.55850 | 32122 ft | 406 kts | 314° |
| 2026-05-04 05:11 | 33.66975 | 25.51319 | 32127 ft | 406 kts | 314° |
| 2026-05-04 05:12 | 33.71187 | 25.46709 | 32126 ft | 406 kts | 314° |
| 2026-05-04 05:12 | 33.75341 | 25.42157 | 32127 ft | 406 kts | 314° |
| 2026-05-04 05:13 | 33.79516 | 25.37575 | 32127 ft | 406 kts | 314° |
| 2026-05-04 05:13 | 33.83677 | 25.33003 | 32131 ft | 406 kts | 314° |
| 2026-05-04 05:14 | 33.87850 | 25.28410 | 32128 ft | 407 kts | 314° |
| 2026-05-04 05:14 | 33.92007 | 25.23829 | 32130 ft | 407 kts | 314° |
| 2026-05-04 05:15 | 33.96176 | 25.19228 | 32136 ft | 407 kts | 314° |
| 2026-05-04 05:15 | 34.00408 | 25.14648 | 32126 ft | 408 kts | 317° |
| 2026-05-04 05:16 | 34.04952 | 25.10568 | 32121 ft | 410 kts | 320° |
| 2026-05-04 05:16 | 34.09595 | 25.06468 | 32126 ft | 410 kts | 320° |
| 2026-05-04 05:17 | 34.14146 | 25.02432 | 32136 ft | 410 kts | 320° |
| 2026-05-04 05:17 | 34.18751 | 24.98332 | 32134 ft | 410 kts | 320° |
| 2026-05-04 05:18 | 34.23341 | 24.94236 | 32130 ft | 410 kts | 320° |
| 2026-05-04 05:18 | 34.27919 | 24.90145 | 32130 ft | 410 kts | 320° |
| 2026-05-04 05:19 | 34.32477 | 24.86067 | 32134 ft | 409 kts | 320° |
| 2026-05-04 05:19 | 34.37080 | 24.81942 | 32133 ft | 409 kts | 320° |
| 2026-05-04 05:20 | 34.41622 | 24.77865 | 32137 ft | 409 kts | 320° |
| 2026-05-04 05:20 | 34.46215 | 24.73738 | 32135 ft | 409 kts | 320° |
| 2026-05-04 05:21 | 34.50771 | 24.69639 | 32136 ft | 409 kts | 320° |
| 2026-05-04 05:21 | 34.55342 | 24.65519 | 32138 ft | 409 kts | 320° |
| 2026-05-04 05:22 | 34.59885 | 24.61420 | 32142 ft | 409 kts | 320° |
| 2026-05-04 05:22 | 34.64468 | 24.57279 | 32140 ft | 409 kts | 320° |
| 2026-05-04 05:23 | 34.69009 | 24.53170 | 32140 ft | 409 kts | 320° |
| 2026-05-04 05:23 | 34.73570 | 24.49036 | 32144 ft | 409 kts | 320° |
| 2026-05-04 05:24 | 34.78146 | 24.44884 | 32138 ft | 409 kts | 320° |
| 2026-05-04 05:24 | 34.82692 | 24.40752 | 32141 ft | 409 kts | 320° |
| 2026-05-04 05:25 | 34.87255 | 24.36600 | 32144 ft | 409 kts | 320° |
| 2026-05-04 05:25 | 34.91838 | 24.32424 | 32143 ft | 409 kts | 320° |
| 2026-05-04 05:26 | 34.96374 | 24.28284 | 32145 ft | 409 kts | 320° |
| 2026-05-04 05:26 | 35.00927 | 24.24123 | 32148 ft | 409 kts | 320° |
| 2026-05-04 05:28 | 35.19123 | 24.07433 | 32158 ft | 409 kts | 320° |
| 2026-05-04 05:29 | 35.23663 | 24.03255 | 32149 ft | 409 kts | 320° |
| 2026-05-04 05:29 | 35.28215 | 23.99059 | 32159 ft | 409 kts | 321° |
| 2026-05-04 05:31 | 35.46422 | 23.82214 | 32156 ft | 411 kts | 321° |
| 2026-05-04 05:32 | 35.50988 | 23.77975 | 32173 ft | 411 kts | 321° |
| 2026-05-04 05:33 | 35.57814 | 23.71625 | 32182 ft | 411 kts | 321° |
| 2026-05-04 05:33 | 35.62369 | 23.67380 | 32183 ft | 411 kts | 321° |
| 2026-05-04 05:34 | 35.66917 | 23.63136 | 32178 ft | 411 kts | 321° |
| 2026-05-04 05:34 | 35.71485 | 23.58866 | 32176 ft | 411 kts | 321° |
| 2026-05-04 05:35 | 35.76017 | 23.54624 | 32178 ft | 411 kts | 321° |
| 2026-05-04 05:35 | 35.80566 | 23.50360 | 32175 ft | 411 kts | 321° |
| 2026-05-04 05:36 | 35.85126 | 23.46079 | 32175 ft | 411 kts | 321° |
| 2026-05-04 05:36 | 35.89662 | 23.41814 | 32183 ft | 411 kts | 321° |
| 2026-05-04 05:37 | 35.94206 | 23.37536 | 32180 ft | 412 kts | 321° |
| 2026-05-04 05:37 | 35.98757 | 23.33245 | 32176 ft | 412 kts | 321° |
| 2026-05-04 05:38 | 36.05587 | 23.26792 | 32181 ft | 412 kts | 321° |
| 2026-05-04 05:38 | 36.10131 | 23.22491 | 32179 ft | 412 kts | 321° |
| 2026-05-04 05:39 | 36.16952 | 23.16023 | 32178 ft | 412 kts | 321° |
| 2026-05-04 05:40 | 36.23795 | 23.09519 | 32184 ft | 413 kts | 321° |
| 2026-05-04 05:40 | 36.28337 | 23.05194 | 32183 ft | 414 kts | 321° |
| 2026-05-04 05:41 | 36.32150 | 23.01559 | 32177 ft | 414 kts | 321° |
| 2026-05-04 05:41 | 36.36691 | 22.97222 | 32179 ft | 413 kts | 321° |
| 2026-05-04 05:42 | 36.41244 | 22.92868 | 32179 ft | 413 kts | 321° |
| 2026-05-04 05:42 | 36.45817 | 22.88488 | 32180 ft | 413 kts | 321° |
| 2026-05-04 05:43 | 36.50371 | 22.84120 | 32180 ft | 413 kts | 321° |
| 2026-05-04 05:45 | 36.68562 | 22.66605 | 32183 ft | 413 kts | 322° |
| 2026-05-04 05:47 | 36.86691 | 22.49041 | 32185 ft | 413 kts | 322° |
| 2026-05-04 05:47 | 36.91228 | 22.44629 | 32185 ft | 413 kts | 322° |
| 2026-05-04 05:48 | 36.95764 | 22.40210 | 32198 ft | 413 kts | 322° |
| 2026-05-04 05:48 | 37.00273 | 22.35810 | 32199 ft | 413 kts | 322° |
| 2026-05-04 05:49 | 37.04799 | 22.31389 | 32203 ft | 412 kts | 322° |
| 2026-05-04 05:49 | 37.09329 | 22.26956 | 32201 ft | 412 kts | 322° |
| 2026-05-04 05:51 | 37.27363 | 22.09239 | 32212 ft | 411 kts | 322° |
| 2026-05-04 05:52 | 37.31878 | 22.04785 | 32198 ft | 411 kts | 322° |
| 2026-05-04 05:52 | 37.36373 | 22.00345 | 32202 ft | 412 kts | 322° |
| 2026-05-04 05:54 | 37.54404 | 21.82463 | 32202 ft | 415 kts | 322° |
| 2026-05-04 05:55 | 37.58978 | 21.77910 | 32191 ft | 416 kts | 322° |
| 2026-05-04 05:55 | 37.63508 | 21.73392 | 32194 ft | 416 kts | 322° |
| 2026-05-04 05:56 | 37.68068 | 21.68836 | 32193 ft | 416 kts | 322° |
| 2026-05-04 05:56 | 37.72563 | 21.64339 | 32201 ft | 417 kts | 322° |
| 2026-05-04 05:57 | 37.77108 | 21.59786 | 32202 ft | 417 kts | 322° |
| 2026-05-04 05:57 | 37.81669 | 21.55208 | 32203 ft | 417 kts | 322° |
| 2026-05-04 05:58 | 37.86195 | 21.50657 | 32206 ft | 416 kts | 322° |
| 2026-05-04 05:58 | 37.90748 | 21.46072 | 32209 ft | 416 kts | 322° |
| 2026-05-04 05:59 | 37.95251 | 21.41530 | 32210 ft | 416 kts | 322° |
| 2026-05-04 05:59 | 37.99792 | 21.36943 | 32211 ft | 416 kts | 322° |
| 2026-05-04 06:00 | 38.04329 | 21.32353 | 32181 ft | 417 kts | 322° |
| 2026-05-04 06:00 | 38.08845 | 21.27776 | 32213 ft | 417 kts | 322° |
| 2026-05-04 06:01 | 38.13401 | 21.23151 | 32211 ft | 418 kts | 322° |
| 2026-05-04 06:03 | 38.31567 | 21.04632 | 32192 ft | 419 kts | 322° |
| 2026-05-04 06:05 | 38.52024 | 20.83632 | 32185 ft | 421 kts | 322° |
| 2026-05-04 06:06 | 38.56580 | 20.78933 | 32179 ft | 421 kts | 322° |
| 2026-05-04 06:06 | 38.61145 | 20.74217 | 32185 ft | 422 kts | 322° |
| 2026-05-04 06:07 | 38.65676 | 20.69528 | 32182 ft | 422 kts | 322° |
| 2026-05-04 06:07 | 38.70252 | 20.64786 | 32176 ft | 422 kts | 322° |
| 2026-05-04 06:08 | 38.74821 | 20.60042 | 32187 ft | 423 kts | 322° |
| 2026-05-04 06:08 | 38.79397 | 20.55282 | 32179 ft | 423 kts | 322° |
| 2026-05-04 06:09 | 38.83930 | 20.50560 | 32176 ft | 422 kts | 322° |
| 2026-05-04 06:11 | 39.02148 | 20.31499 | 32168 ft | 423 kts | 322° |
| 2026-05-04 06:13 | 39.20419 | 20.12250 | 32154 ft | 424 kts | 322° |
| 2026-05-04 06:14 | 39.36395 | 19.95309 | 32149 ft | 425 kts | 322° |
| 2026-05-04 06:15 | 39.40934 | 19.90478 | 32148 ft | 425 kts | 322° |
| 2026-05-04 06:15 | 39.45502 | 19.85606 | 32150 ft | 425 kts | 322° |
| 2026-05-04 06:16 | 39.50064 | 19.80733 | 32153 ft | 425 kts | 322° |
| 2026-05-04 06:16 | 39.54631 | 19.75845 | 32154 ft | 425 kts | 322° |
| 2026-05-04 06:17 | 39.59163 | 19.70986 | 32151 ft | 426 kts | 322° |
| 2026-05-04 06:17 | 39.63733 | 19.66078 | 32150 ft | 426 kts | 322° |
| 2026-05-04 06:18 | 39.68307 | 19.61158 | 32145 ft | 426 kts | 322° |
| 2026-05-04 06:20 | 39.86560 | 19.41432 | 32141 ft | 427 kts | 322° |
| 2026-05-04 06:21 | 39.97961 | 19.29039 | 32141 ft | 428 kts | 322° |
| 2026-05-04 06:22 | 40.02536 | 19.24050 | 32144 ft | 428 kts | 321° |
| 2026-05-04 06:25 | 40.32655 | 18.86399 | 32143 ft | 432 kts | 310° |
| 2026-05-04 06:26 | 40.36330 | 18.80224 | 32142 ft | 432 kts | 311° |
| 2026-05-04 06:26 | 40.40029 | 18.74015 | 32144 ft | 432 kts | 310° |
| 2026-05-04 06:27 | 40.49276 | 18.58466 | 32142 ft | 433 kts | 310° |
| 2026-05-04 06:28 | 40.53001 | 18.52179 | 32141 ft | 433 kts | 310° |
| 2026-05-04 06:28 | 40.56077 | 18.46979 | 32139 ft | 433 kts | 310° |
| 2026-05-04 06:29 | 40.60370 | 18.39706 | 32136 ft | 433 kts | 310° |
| 2026-05-04 06:29 | 40.63448 | 18.34480 | 32156 ft | 433 kts | 310° |
| 2026-05-04 06:30 | 40.67142 | 18.28199 | 32151 ft | 434 kts | 310° |
| 2026-05-04 06:30 | 40.70831 | 18.21912 | 32157 ft | 434 kts | 310° |
| 2026-05-04 06:31 | 40.74535 | 18.15586 | 32152 ft | 434 kts | 310° |
| 2026-05-04 06:31 | 40.78216 | 18.09287 | 32155 ft | 435 kts | 310° |
| 2026-05-04 06:33 | 40.92977 | 17.83898 | 32144 ft | 436 kts | 309° |
| 2026-05-04 06:34 | 40.96644 | 17.77559 | 32145 ft | 436 kts | 309° |
| 2026-05-04 06:34 | 41.00330 | 17.71174 | 32149 ft | 437 kts | 309° |
| 2026-05-04 06:36 | 41.15063 | 17.45517 | 32144 ft | 438 kts | 309° |
| 2026-05-04 06:37 | 41.18752 | 17.39059 | 32145 ft | 439 kts | 309° |
| 2026-05-04 06:37 | 41.22419 | 17.32625 | 32147 ft | 439 kts | 309° |
| 2026-05-04 06:38 | 41.26097 | 17.26159 | 32147 ft | 439 kts | 309° |
| 2026-05-04 06:40 | 41.40811 | 17.00156 | 32144 ft | 440 kts | 308° |
| 2026-05-04 06:40 | 41.44493 | 16.93614 | 32141 ft | 441 kts | 308° |
| 2026-05-04 06:41 | 41.48153 | 16.87096 | 32144 ft | 441 kts | 308° |
| 2026-05-04 06:41 | 41.51823 | 16.80549 | 32139 ft | 441 kts | 308° |
| 2026-05-04 06:42 | 41.55504 | 16.73967 | 32138 ft | 442 kts | 308° |
| 2026-05-04 06:44 | 41.70161 | 16.47615 | 32139 ft | 443 kts | 308° |
| 2026-05-04 06:44 | 41.73826 | 16.40991 | 32135 ft | 443 kts | 307° |
| 2026-05-04 06:45 | 41.77492 | 16.34349 | 32148 ft | 443 kts | 307° |
| 2026-05-04 06:45 | 41.81157 | 16.27695 | 32146 ft | 444 kts | 307° |
| 2026-05-04 06:46 | 41.84836 | 16.21001 | 32158 ft | 444 kts | 307° |
| 2026-05-04 06:46 | 41.88478 | 16.14360 | 32171 ft | 445 kts | 307° |
| 2026-05-04 06:48 | 42.03124 | 15.87504 | 32200 ft | 446 kts | 307° |
| 2026-05-04 06:50 | 42.17753 | 15.60438 | 32149 ft | 448 kts | 306° |
| 2026-05-04 06:51 | 42.21412 | 15.53631 | 32132 ft | 448 kts | 306° |
| 2026-05-04 06:51 | 42.25067 | 15.46816 | 32129 ft | 448 kts | 306° |
| 2026-05-04 06:52 | 42.28715 | 15.39997 | 32130 ft | 449 kts | 306° |
| 2026-05-04 06:52 | 42.32368 | 15.33155 | 32130 ft | 449 kts | 306° |
| 2026-05-04 06:53 | 42.36020 | 15.26299 | 32131 ft | 450 kts | 306° |
| 2026-05-04 06:53 | 42.39673 | 15.19424 | 32127 ft | 450 kts | 305° |
| 2026-05-04 06:54 | 42.43336 | 15.12516 | 32128 ft | 450 kts | 305° |
| 2026-05-04 06:54 | 42.46959 | 15.05667 | 32128 ft | 451 kts | 305° |
| 2026-05-04 06:55 | 42.50608 | 14.98754 | 32128 ft | 451 kts | 305° |
| 2026-05-04 06:55 | 42.54252 | 14.91833 | 32125 ft | 451 kts | 305° |
| 2026-05-04 06:57 | 42.68796 | 14.64052 | 32128 ft | 452 kts | 304° |
| 2026-05-04 06:58 | 42.72441 | 14.57048 | 32124 ft | 452 kts | 304° |
| 2026-05-04 06:58 | 42.76056 | 14.50086 | 32125 ft | 453 kts | 304° |
| 2026-05-04 06:59 | 42.79705 | 14.43042 | 32124 ft | 453 kts | 304° |
| 2026-05-04 06:59 | 42.83310 | 14.36067 | 32126 ft | 453 kts | 304° |
| 2026-05-04 07:01 | 42.97807 | 14.07852 | 32123 ft | 455 kts | 303° |
| 2026-05-04 07:02 | 43.01434 | 14.00752 | 32126 ft | 455 kts | 303° |
| 2026-05-04 07:02 | 43.05055 | 13.93644 | 32131 ft | 456 kts | 303° |
| 2026-05-04 07:03 | 43.08655 | 13.86561 | 32124 ft | 456 kts | 303° |
| 2026-05-04 07:03 | 43.12271 | 13.79432 | 32130 ft | 456 kts | 303° |
| 2026-05-04 07:04 | 43.15880 | 13.72297 | 32130 ft | 456 kts | 303° |
| 2026-05-04 07:04 | 43.19505 | 13.65114 | 32127 ft | 457 kts | 303° |
| 2026-05-04 07:05 | 43.23107 | 13.57960 | 32124 ft | 457 kts | 303° |
| 2026-05-04 07:05 | 43.26713 | 13.50778 | 32122 ft | 457 kts | 303° |
| 2026-05-04 07:06 | 43.32092 | 13.40035 | 32127 ft | 457 kts | 303° |
| 2026-05-04 07:07 | 43.35695 | 13.32818 | 32126 ft | 457 kts | 303° |
| 2026-05-04 07:09 | 43.50022 | 13.03939 | 32126 ft | 458 kts | 302° |
| 2026-05-04 07:09 | 43.53606 | 12.96671 | 32129 ft | 457 kts | 302° |
| 2026-05-04 07:10 | 43.57178 | 12.89410 | 32130 ft | 457 kts | 302° |
| 2026-05-04 07:12 | 43.71409 | 12.60297 | 32126 ft | 458 kts | 302° |
| 2026-05-04 07:12 | 43.74968 | 12.52969 | 32117 ft | 459 kts | 302° |
| 2026-05-04 07:13 | 43.78533 | 12.45616 | 32120 ft | 459 kts | 302° |
| 2026-05-04 07:13 | 43.82071 | 12.38296 | 32120 ft | 459 kts | 302° |
| 2026-05-04 07:14 | 43.90946 | 12.19852 | 32133 ft | 460 kts | 302° |
| 2026-05-04 07:15 | 43.94486 | 12.12464 | 32137 ft | 460 kts | 301° |
| 2026-05-04 07:15 | 43.98006 | 12.05095 | 32136 ft | 460 kts | 301° |
| 2026-05-04 07:16 | 44.01539 | 11.97687 | 32140 ft | 460 kts | 301° |
| 2026-05-04 07:16 | 44.05064 | 11.90272 | 32143 ft | 460 kts | 301° |
| 2026-05-04 07:17 | 44.08594 | 11.82830 | 32120 ft | 460 kts | 301° |
| 2026-05-04 07:17 | 44.12119 | 11.75380 | 32149 ft | 461 kts | 301° |
| 2026-05-04 07:18 | 44.15618 | 11.67963 | 32160 ft | 461 kts | 301° |
| 2026-05-04 07:18 | 44.19136 | 11.60486 | 32171 ft | 461 kts | 301° |
| 2026-05-04 07:19 | 44.22650 | 11.52999 | 32173 ft | 462 kts | 301° |
| 2026-05-04 07:19 | 44.26168 | 11.45487 | 32146 ft | 462 kts | 301° |
| 2026-05-04 07:20 | 44.29087 | 11.39239 | 32160 ft | 462 kts | 301° |
| 2026-05-04 07:20 | 44.32598 | 11.31703 | 32131 ft | 462 kts | 301° |
| 2026-05-04 07:22 | 44.46589 | 11.01483 | 32134 ft | 463 kts | 300° |
| 2026-05-04 07:23 | 44.50050 | 10.93956 | 32145 ft | 463 kts | 300° |
| 2026-05-04 07:23 | 44.53532 | 10.86364 | 32148 ft | 463 kts | 300° |
| 2026-05-04 07:24 | 44.57020 | 10.78742 | 32163 ft | 463 kts | 300° |
| 2026-05-04 07:24 | 44.60491 | 10.71133 | 32154 ft | 463 kts | 300° |
| 2026-05-04 07:26 | 44.74322 | 10.40619 | 32107 ft | 463 kts | 300° |
| 2026-05-04 07:27 | 44.77780 | 10.32939 | 32102 ft | 463 kts | 300° |
| 2026-05-04 07:27 | 44.81210 | 10.25301 | 32105 ft | 463 kts | 300° |
| 2026-05-04 07:28 | 44.84655 | 10.17608 | 32103 ft | 463 kts | 300° |
| 2026-05-04 07:28 | 44.88086 | 10.09927 | 32103 ft | 463 kts | 299° |
| 2026-05-04 07:29 | 44.91498 | 10.02267 | 32102 ft | 463 kts | 299° |
| 2026-05-04 07:29 | 44.94924 | 9.94555 | 32101 ft | 463 kts | 299° |
| 2026-05-04 07:30 | 44.98343 | 9.86838 | 32105 ft | 463 kts | 299° |
| 2026-05-04 07:30 | 45.01760 | 9.79104 | 32105 ft | 463 kts | 299° |
| 2026-05-04 07:31 | 45.05169 | 9.71367 | 32106 ft | 464 kts | 299° |
| 2026-05-04 07:33 | 45.18775 | 9.40274 | 32118 ft | 466 kts | 299° |
| 2026-05-04 07:33 | 45.22179 | 9.32444 | 32120 ft | 466 kts | 299° |
| 2026-05-04 07:34 | 45.25575 | 9.24609 | 32125 ft | 466 kts | 298° |
| 2026-05-04 07:34 | 45.28968 | 9.16759 | 32124 ft | 466 kts | 298° |
| 2026-05-04 07:35 | 45.32334 | 9.08950 | 32128 ft | 466 kts | 298° |
| 2026-05-04 07:35 | 45.35723 | 9.01067 | 32127 ft | 467 kts | 298° |
| 2026-05-04 07:36 | 45.39105 | 8.93174 | 32117 ft | 466 kts | 298° |
| 2026-05-04 07:38 | 45.52561 | 8.61561 | 32134 ft | 467 kts | 298° |
| 2026-05-04 07:38 | 45.55919 | 8.53613 | 32128 ft | 467 kts | 298° |
| 2026-05-04 07:39 | 45.59272 | 8.45659 | 32130 ft | 467 kts | 297° |
| 2026-05-04 07:39 | 45.62616 | 8.37701 | 32133 ft | 467 kts | 297° |
| 2026-05-04 07:40 | 45.65967 | 8.29703 | 32123 ft | 468 kts | 297° |
| 2026-05-04 07:40 | 45.69292 | 8.21745 | 32134 ft | 468 kts | 297° |
| 2026-05-04 07:41 | 45.72632 | 8.13729 | 32134 ft | 468 kts | 297° |
| 2026-05-04 07:41 | 45.75937 | 8.05775 | 32134 ft | 468 kts | 297° |
| 2026-05-04 07:42 | 45.79254 | 7.97769 | 32135 ft | 468 kts | 297° |
| 2026-05-04 07:42 | 45.82576 | 7.89724 | 32132 ft | 467 kts | 297° |
| 2026-05-04 07:43 | 45.85867 | 7.81735 | 32130 ft | 467 kts | 296° |
| 2026-05-04 07:43 | 45.89174 | 7.73683 | 32131 ft | 467 kts | 296° |
| 2026-05-04 07:44 | 45.92458 | 7.65662 | 32111 ft | 467 kts | 296° |
| 2026-05-04 07:44 | 45.95779 | 7.57622 | 32117 ft | 467 kts | 299° |
| 2026-05-04 07:45 | 45.99824 | 7.50250 | 32076 ft | 474 kts | 310° |
| 2026-05-04 07:45 | 46.04465 | 7.43569 | 32064 ft | 474 kts | 311° |
| 2026-05-04 07:46 | 46.09131 | 7.36907 | 32049 ft | 474 kts | 310° |
| 2026-05-04 07:46 | 46.13809 | 7.30150 | 32046 ft | 473 kts | 310° |
| 2026-05-04 07:47 | 46.18440 | 7.23402 | 32048 ft | 473 kts | 310° |
| 2026-05-04 07:49 | 46.36809 | 6.96427 | 32035 ft | 471 kts | 309° |
| 2026-05-04 07:49 | 46.41377 | 6.89676 | 32031 ft | 471 kts | 309° |
| 2026-05-04 07:50 | 46.45985 | 6.82849 | 32035 ft | 472 kts | 309° |
| 2026-05-04 07:50 | 46.50571 | 6.76038 | 32042 ft | 473 kts | 309° |
| 2026-05-04 07:51 | 46.55144 | 6.69229 | 32046 ft | 474 kts | 309° |
| 2026-05-04 07:51 | 46.59750 | 6.62354 | 32041 ft | 475 kts | 309° |
| 2026-05-04 07:52 | 46.64367 | 6.55445 | 32040 ft | 476 kts | 309° |
| 2026-05-04 07:52 | 46.68957 | 6.48558 | 32049 ft | 477 kts | 309° |
| 2026-05-04 07:54 | 46.87402 | 6.20700 | 32056 ft | 476 kts | 309° |
| 2026-05-04 07:55 | 46.91970 | 6.13756 | 32042 ft | 477 kts | 309° |
| 2026-05-04 07:55 | 46.96569 | 6.06745 | 32048 ft | 477 kts | 309° |
| 2026-05-04 07:56 | 47.01171 | 5.99710 | 32056 ft | 478 kts | 309° |
| 2026-05-04 07:56 | 47.05774 | 5.92655 | 32043 ft | 478 kts | 308° |
| 2026-05-04 07:57 | 47.10374 | 5.85588 | 32048 ft | 479 kts | 308° |
| 2026-05-04 07:57 | 47.14981 | 5.78490 | 32056 ft | 480 kts | 308° |
| 2026-05-04 07:58 | 47.19590 | 5.71370 | 32045 ft | 481 kts | 308° |
| 2026-05-04 07:58 | 47.24177 | 5.64266 | 32047 ft | 481 kts | 308° |
| 2026-05-04 07:59 | 47.28784 | 5.57110 | 32057 ft | 481 kts | 308° |
| 2026-05-04 07:59 | 47.33386 | 5.49941 | 32051 ft | 482 kts | 308° |
| 2026-05-04 08:00 | 47.37988 | 5.42755 | 32044 ft | 482 kts | 308° |
| 2026-05-04 08:02 | 47.56363 | 5.13861 | 32042 ft | 483 kts | 308° |
| 2026-05-04 08:02 | 47.61098 | 5.06727 | 32036 ft | 488 kts | 314° |
| 2026-05-04 08:03 | 47.66366 | 5.00341 | 32035 ft | 490 kts | 316° |
| 2026-05-04 08:03 | 47.71604 | 4.93947 | 32028 ft | 489 kts | 315° |
| 2026-05-04 08:04 | 47.76789 | 4.87379 | 32033 ft | 489 kts | 315° |
| 2026-05-04 08:04 | 47.81963 | 4.80804 | 32025 ft | 489 kts | 314° |
| 2026-05-04 08:05 | 47.87146 | 4.74209 | 31924 ft | 487 kts | 314° |
| 2026-05-04 08:05 | 47.89714 | 4.70939 | 31410 ft | 483 kts | 314° |
| 2026-05-04 08:05 | 47.92257 | 4.67696 | 30811 ft | 480 kts | 315° |
| 2026-05-04 08:06 | 47.94786 | 4.64464 | 30200 ft | 477 kts | 315° |
| 2026-05-04 08:06 | 47.97265 | 4.61291 | 29528 ft | 474 kts | 315° |
| 2026-05-04 08:06 | 47.99764 | 4.58089 | 28897 ft | 470 kts | 315° |
| 2026-05-04 08:06 | 48.02237 | 4.54916 | 28320 ft | 466 kts | 315° |
| 2026-05-04 08:08 | 48.18161 | 4.34376 | 24701 ft | 444 kts | 315° |
| 2026-05-04 08:08 | 48.20490 | 4.31357 | 24232 ft | 441 kts | 315° |
| 2026-05-04 08:10 | 48.36458 | 4.05224 | 20086 ft | 411 kts | 306° |
| 2026-05-04 08:11 | 48.38273 | 4.01915 | 19628 ft | 408 kts | 307° |
| 2026-05-04 08:11 | 48.41847 | 3.95380 | 18747 ft | 401 kts | 307° |
| 2026-05-04 08:11 | 48.43613 | 3.92140 | 18314 ft | 398 kts | 307° |
| 2026-05-04 08:12 | 48.45364 | 3.88923 | 17820 ft | 394 kts | 307° |
| 2026-05-04 08:12 | 48.47091 | 3.85743 | 17400 ft | 390 kts | 307° |
| 2026-05-04 08:12 | 48.48796 | 3.82603 | 17029 ft | 385 kts | 307° |
| 2026-05-04 08:12 | 48.50485 | 3.79487 | 16672 ft | 382 kts | 307° |
| 2026-05-04 08:13 | 48.52152 | 3.76410 | 16321 ft | 382 kts | 307° |
| 2026-05-04 08:13 | 48.53829 | 3.73305 | 15996 ft | 381 kts | 307° |
| 2026-05-04 08:13 | 48.55366 | 3.70100 | 15917 ft | 374 kts | 301° |
| 2026-05-04 08:13 | 48.56758 | 3.66756 | 15853 ft | 379 kts | 300° |
| 2026-05-04 08:14 | 48.58153 | 3.63355 | 15774 ft | 382 kts | 300° |
| 2026-05-04 08:14 | 48.59581 | 3.59964 | 15683 ft | 382 kts | 301° |
| 2026-05-04 08:14 | 48.61020 | 3.56598 | 15609 ft | 380 kts | 301° |
| 2026-05-04 08:16 | 48.70971 | 3.33312 | 15091 ft | 374 kts | 301° |
| 2026-05-04 08:16 | 48.72380 | 3.29996 | 15004 ft | 374 kts | 301° |
| 2026-05-04 08:16 | 48.73785 | 3.26687 | 14948 ft | 374 kts | 301° |
| 2026-05-04 08:17 | 48.75190 | 3.23372 | 14868 ft | 374 kts | 301° |
| 2026-05-04 08:17 | 48.76593 | 3.20056 | 14800 ft | 374 kts | 301° |
| 2026-05-04 08:17 | 48.77977 | 3.16783 | 14720 ft | 374 kts | 302° |
| 2026-05-04 08:17 | 48.79396 | 3.13422 | 14643 ft | 373 kts | 302° |
| 2026-05-04 08:19 | 48.90112 | 2.92017 | 14118 ft | 333 kts | 311° |
| 2026-05-04 08:19 | 48.91652 | 2.89466 | 14053 ft | 321 kts | 311° |
| 2026-05-04 08:20 | 48.92986 | 2.86909 | 13973 ft | 309 kts | 296° |
| 2026-05-04 08:20 | 48.93623 | 2.83803 | 13771 ft | 309 kts | 274° |
| 2026-05-04 08:20 | 48.93570 | 2.80557 | 13492 ft | 306 kts | 265° |
| 2026-05-04 08:20 | 48.93387 | 2.77328 | 13192 ft | 308 kts | 264° |
| 2026-05-04 08:21 | 48.93194 | 2.74079 | 12890 ft | 307 kts | 264° |
| 2026-05-04 08:21 | 48.93005 | 2.70849 | 12597 ft | 305 kts | 264° |
| 2026-05-04 08:21 | 48.92825 | 2.67687 | 12298 ft | 303 kts | 264° |
| 2026-05-04 08:21 | 48.92648 | 2.64507 | 12015 ft | 300 kts | 264° |
| 2026-05-04 08:22 | 48.92475 | 2.61351 | 11718 ft | 295 kts | 264° |
| 2026-05-04 08:22 | 48.92310 | 2.58332 | 11433 ft | 279 kts | 264° |
| 2026-05-04 08:24 | 48.91152 | 2.37336 | 9589 ft | 275 kts | 265° |
| 2026-05-04 08:24 | 48.90988 | 2.34434 | 9321 ft | 275 kts | 265° |
| 2026-05-04 08:24 | 48.90825 | 2.31533 | 9058 ft | 275 kts | 265° |
| 2026-05-04 08:24 | 48.90661 | 2.28641 | 8760 ft | 275 kts | 265° |
| 2026-05-04 08:25 | 48.90497 | 2.25757 | 8364 ft | 272 kts | 264° |
| 2026-05-04 08:25 | 48.90334 | 2.22901 | 7963 ft | 269 kts | 265° |
| 2026-05-04 08:25 | 48.90173 | 2.20082 | 7594 ft | 267 kts | 264° |
| 2026-05-04 08:25 | 48.90011 | 2.17278 | 7313 ft | 265 kts | 264° |
| 2026-05-04 08:26 | 48.89847 | 2.14451 | 7111 ft | 273 kts | 264° |
| 2026-05-04 08:27 | 48.96850 | 2.11664 | 5317 ft | 254 kts | 80° |
| 2026-05-04 08:28 | 48.97076 | 2.14330 | 5098 ft | 253 kts | 85° |
| 2026-05-04 08:28 | 48.97215 | 2.16981 | 5055 ft | 250 kts | 86° |
| 2026-05-04 08:28 | 48.97342 | 2.19539 | 4994 ft | 240 kts | 86° |
| 2026-05-04 08:28 | 48.97471 | 2.22063 | 4793 ft | 237 kts | 86° |
| 2026-05-04 08:29 | 48.97601 | 2.24566 | 4490 ft | 237 kts | 86° |
| 2026-05-04 08:29 | 48.97731 | 2.27016 | 4205 ft | 232 kts | 86° |
| 2026-05-04 08:29 | 48.97856 | 2.29401 | 3867 ft | 220 kts | 86° |
| 2026-05-04 08:31 | 48.98617 | 2.43768 | 2033 ft | 162 kts | 86° |
| 2026-05-04 08:33 | 48.99202 | 2.54854 | 622 ft | 146 kts | 85° |
| 2026-05-04 08:33 | 48.99281 | 2.56375 | 409 ft | 146 kts | 85° |
| 2026-05-04 08:35 | 48.99637 | 2.59739 | 360 ft | 11 kts | 279° |
| 2026-05-04 08:35 | 48.99699 | 2.59689 | 361 ft | 11 kts | 356° |
| 2026-05-04 08:35 | 48.99777 | 2.59681 | 364 ft | 11 kts | 356° |
| 2026-05-04 08:35 | 48.99863 | 2.59670 | 362 ft | 13 kts | 354° |
| 2026-05-04 08:37 | 49.00049 | 2.59035 | 364 ft | 15 kts | 264° |
| 2026-05-04 08:37 | 49.00080 | 2.58901 | 368 ft | 13 kts | 333° |
| 2026-05-04 08:37 | 49.00154 | 2.58889 | 364 ft | 8 kts | 355° |
| 2026-05-04 08:38 | 49.00188 | 2.58918 | 366 ft | 6 kts | 65° |
| 2026-05-04 08:38 | 49.00200 | 2.58982 | 364 ft | 6 kts | 77° |
| 2026-05-04 08:38 | 49.00201 | 2.59012 | 364 ft | 0 kts | 86° |